<?xml version="1.0" encoding="UTF-8" standalone="no" ?>
<gpx xmlns="http://www.topografix.com/GPX/1/1" xmlns:xsi="http://www.w3.org/2001/XMLSchema-instance" xsi:schemaLocation="http://www.topografix.com/GPX/1/1 http://www.topografix.com/GPX/1/1/gpx.xsd" version="1.1" creator="VisuGPX - https://www.visugpx.com">
  <metadata>
    <name>Col de Jou- Mariaille-Pla Guillem-Pic des 7 Homme</name>
    <desc><![CDATA[TOPO sur notre site:
https://randonnees-pyrenees-orientales.e-monsite.com/pages/pyrenees-orientales/conflent-bas/col-de-jou-mariaille-pla-guillem-mattes-rouges-parking-rande.html]]></desc>
  </metadata>
  <trk>
    <name><![CDATA[13447856- Col de Jou- Mariaille-Pla Guillem-Pic des 7 Homme]]></name>
    <extensions>
      <line xmlns="http://www.topografix.com/GPX/gpx_style/0/2">
        <color>0000FF</color>
        <width>4</width>
      </line>
    </extensions>
    <trkseg>
      <trkpt lat="42.51397" lon="2.38069">
        <ele>1139</ele>
        <time>2022-07-06T11:42:51Z</time>
      </trkpt>
      <trkpt lat="42.51406" lon="2.3805">
        <ele>1128</ele>
        <time>2022-07-06T11:43:13Z</time>
      </trkpt>
      <trkpt lat="42.51404" lon="2.38065">
        <ele>1135</ele>
        <time>2022-07-06T11:43:28Z</time>
      </trkpt>
      <trkpt lat="42.51406" lon="2.38071">
        <ele>1136</ele>
        <time>2022-07-06T11:43:35Z</time>
      </trkpt>
      <trkpt lat="42.51401" lon="2.38072">
        <ele>1138</ele>
        <time>2022-07-06T11:43:41Z</time>
      </trkpt>
      <trkpt lat="42.51408" lon="2.38075">
        <ele>1137</ele>
        <time>2022-07-06T11:43:51Z</time>
      </trkpt>
      <trkpt lat="42.51408" lon="2.3807">
        <ele>1135</ele>
        <time>2022-07-06T11:43:56Z</time>
      </trkpt>
      <trkpt lat="42.51453" lon="2.38104">
        <ele>1136</ele>
        <time>2022-07-06T11:45:05Z</time>
      </trkpt>
      <trkpt lat="42.51489" lon="2.38103">
        <ele>1126</ele>
        <time>2022-07-06T11:45:53Z</time>
      </trkpt>
      <trkpt lat="42.51498" lon="2.3811">
        <ele>1125</ele>
        <time>2022-07-06T11:46:07Z</time>
      </trkpt>
      <trkpt lat="42.51471" lon="2.38127">
        <ele>1136</ele>
        <time>2022-07-06T11:46:46Z</time>
      </trkpt>
      <trkpt lat="42.51468" lon="2.38163">
        <ele>1144</ele>
        <time>2022-07-06T11:47:22Z</time>
      </trkpt>
      <trkpt lat="42.51461" lon="2.3819">
        <ele>1153</ele>
        <time>2022-07-06T11:47:50Z</time>
      </trkpt>
      <trkpt lat="42.51462" lon="2.38212">
        <ele>1156</ele>
        <time>2022-07-06T11:48:12Z</time>
      </trkpt>
      <trkpt lat="42.51451" lon="2.38242">
        <ele>1167</ele>
        <time>2022-07-06T11:48:45Z</time>
      </trkpt>
      <trkpt lat="42.51448" lon="2.3827">
        <ele>1173</ele>
        <time>2022-07-06T11:49:13Z</time>
      </trkpt>
      <trkpt lat="42.51443" lon="2.38288">
        <ele>1178</ele>
        <time>2022-07-06T11:49:32Z</time>
      </trkpt>
      <trkpt lat="42.51438" lon="2.38362">
        <ele>1192</ele>
        <time>2022-07-06T11:50:45Z</time>
      </trkpt>
      <trkpt lat="42.51444" lon="2.38377">
        <ele>1192</ele>
        <time>2022-07-06T11:51:02Z</time>
      </trkpt>
      <trkpt lat="42.51471" lon="2.38415">
        <ele>1186</ele>
        <time>2022-07-06T11:51:53Z</time>
      </trkpt>
      <trkpt lat="42.51489" lon="2.38447">
        <ele>1186</ele>
        <time>2022-07-06T11:52:33Z</time>
      </trkpt>
      <trkpt lat="42.51494" lon="2.3848">
        <ele>1193</ele>
        <time>2022-07-06T11:53:06Z</time>
      </trkpt>
      <trkpt lat="42.51507" lon="2.38518">
        <ele>1197</ele>
        <time>2022-07-06T11:53:47Z</time>
      </trkpt>
      <trkpt lat="42.5151" lon="2.38538">
        <ele>1201</ele>
        <time>2022-07-06T11:54:07Z</time>
      </trkpt>
      <trkpt lat="42.51504" lon="2.38596">
        <ele>1215</ele>
        <time>2022-07-06T11:55:05Z</time>
      </trkpt>
      <trkpt lat="42.51508" lon="2.3861">
        <ele>1214</ele>
        <time>2022-07-06T11:55:20Z</time>
      </trkpt>
      <trkpt lat="42.51521" lon="2.38622">
        <ele>1210</ele>
        <time>2022-07-06T11:55:41Z</time>
      </trkpt>
      <trkpt lat="42.51542" lon="2.38651">
        <ele>1205</ele>
        <time>2022-07-06T11:56:21Z</time>
      </trkpt>
      <trkpt lat="42.51544" lon="2.38671">
        <ele>1205</ele>
        <time>2022-07-06T11:56:41Z</time>
      </trkpt>
      <trkpt lat="42.51533" lon="2.38684">
        <ele>1205</ele>
        <time>2022-07-06T11:57:00Z</time>
      </trkpt>
      <trkpt lat="42.51523" lon="2.38691">
        <ele>1207</ele>
        <time>2022-07-06T11:57:15Z</time>
      </trkpt>
      <trkpt lat="42.51518" lon="2.3869">
        <ele>1208</ele>
        <time>2022-07-06T11:57:22Z</time>
      </trkpt>
      <trkpt lat="42.51518" lon="2.38692">
        <ele>1208</ele>
        <time>2022-07-06T11:57:24Z</time>
      </trkpt>
      <trkpt lat="42.51499" lon="2.38681">
        <ele>1217</ele>
        <time>2022-07-06T11:57:51Z</time>
      </trkpt>
      <trkpt lat="42.51484" lon="2.38681">
        <ele>1223</ele>
        <time>2022-07-06T11:58:11Z</time>
      </trkpt>
      <trkpt lat="42.51456" lon="2.38693">
        <ele>1230</ele>
        <time>2022-07-06T11:58:51Z</time>
      </trkpt>
      <trkpt lat="42.51424" lon="2.38694">
        <ele>1241</ele>
        <time>2022-07-06T11:59:33Z</time>
      </trkpt>
      <trkpt lat="42.51406" lon="2.38702">
        <ele>1246</ele>
        <time>2022-07-06T11:59:59Z</time>
      </trkpt>
      <trkpt lat="42.51382" lon="2.38736">
        <ele>1247</ele>
        <time>2022-07-06T12:00:45Z</time>
      </trkpt>
      <trkpt lat="42.5134" lon="2.38785">
        <ele>1251</ele>
        <time>2022-07-06T12:01:59Z</time>
      </trkpt>
      <trkpt lat="42.51323" lon="2.38795">
        <ele>1256</ele>
        <time>2022-07-06T12:02:24Z</time>
      </trkpt>
      <trkpt lat="42.51314" lon="2.38807">
        <ele>1257</ele>
        <time>2022-07-06T12:02:40Z</time>
      </trkpt>
      <trkpt lat="42.51301" lon="2.38813">
        <ele>1262</ele>
        <time>2022-07-06T12:02:59Z</time>
      </trkpt>
      <trkpt lat="42.51288" lon="2.38813">
        <ele>1269</ele>
        <time>2022-07-06T12:03:16Z</time>
      </trkpt>
      <trkpt lat="42.51268" lon="2.38835">
        <ele>1272</ele>
        <time>2022-07-06T12:03:50Z</time>
      </trkpt>
      <trkpt lat="42.51259" lon="2.38847">
        <ele>1275</ele>
        <time>2022-07-06T12:04:07Z</time>
      </trkpt>
      <trkpt lat="42.51257" lon="2.38858">
        <ele>1274</ele>
        <time>2022-07-06T12:04:18Z</time>
      </trkpt>
      <trkpt lat="42.51247" lon="2.38875">
        <ele>1277</ele>
        <time>2022-07-06T12:04:40Z</time>
      </trkpt>
      <trkpt lat="42.51245" lon="2.38893">
        <ele>1275</ele>
        <time>2022-07-06T12:04:58Z</time>
      </trkpt>
      <trkpt lat="42.51228" lon="2.38907">
        <ele>1283</ele>
        <time>2022-07-06T12:05:24Z</time>
      </trkpt>
      <trkpt lat="42.51212" lon="2.38925">
        <ele>1290</ele>
        <time>2022-07-06T12:05:52Z</time>
      </trkpt>
      <trkpt lat="42.51197" lon="2.3895">
        <ele>1296</ele>
        <time>2022-07-06T12:06:24Z</time>
      </trkpt>
      <trkpt lat="42.5118" lon="2.38966">
        <ele>1302</ele>
        <time>2022-07-06T12:06:51Z</time>
      </trkpt>
      <trkpt lat="42.51171" lon="2.38983">
        <ele>1303</ele>
        <time>2022-07-06T12:07:12Z</time>
      </trkpt>
      <trkpt lat="42.5116" lon="2.38991">
        <ele>1308</ele>
        <time>2022-07-06T12:07:29Z</time>
      </trkpt>
      <trkpt lat="42.51154" lon="2.38986">
        <ele>1313</ele>
        <time>2022-07-06T12:07:38Z</time>
      </trkpt>
      <trkpt lat="42.51152" lon="2.38987">
        <ele>1314</ele>
        <time>2022-07-06T12:07:41Z</time>
      </trkpt>
      <trkpt lat="42.51143" lon="2.39023">
        <ele>1318</ele>
        <time>2022-07-06T12:08:18Z</time>
      </trkpt>
      <trkpt lat="42.51136" lon="2.39032">
        <ele>1322</ele>
        <time>2022-07-06T12:08:31Z</time>
      </trkpt>
      <trkpt lat="42.51129" lon="2.39033">
        <ele>1326</ele>
        <time>2022-07-06T12:08:41Z</time>
      </trkpt>
      <trkpt lat="42.51123" lon="2.39006">
        <ele>1331</ele>
        <time>2022-07-06T12:09:08Z</time>
      </trkpt>
      <trkpt lat="42.51106" lon="2.39044">
        <ele>1338</ele>
        <time>2022-07-06T12:09:52Z</time>
      </trkpt>
      <trkpt lat="42.51099" lon="2.39053">
        <ele>1341</ele>
        <time>2022-07-06T12:10:05Z</time>
      </trkpt>
      <trkpt lat="42.51086" lon="2.39053">
        <ele>1347</ele>
        <time>2022-07-06T12:10:22Z</time>
      </trkpt>
      <trkpt lat="42.51083" lon="2.39043">
        <ele>1350</ele>
        <time>2022-07-06T12:10:33Z</time>
      </trkpt>
      <trkpt lat="42.51081" lon="2.39018">
        <ele>1356</ele>
        <time>2022-07-06T12:10:58Z</time>
      </trkpt>
      <trkpt lat="42.51083" lon="2.39024">
        <ele>1354</ele>
        <time>2022-07-06T12:11:04Z</time>
      </trkpt>
      <trkpt lat="42.5108" lon="2.39025">
        <ele>1356</ele>
        <time>2022-07-06T12:11:08Z</time>
      </trkpt>
      <trkpt lat="42.51088" lon="2.3904">
        <ele>1348</ele>
        <time>2022-07-06T12:11:26Z</time>
      </trkpt>
      <trkpt lat="42.51081" lon="2.39056">
        <ele>1349</ele>
        <time>2022-07-06T12:11:45Z</time>
      </trkpt>
      <trkpt lat="42.5102" lon="2.39093">
        <ele>1383</ele>
        <time>2022-07-06T12:13:14Z</time>
      </trkpt>
      <trkpt lat="42.51011" lon="2.39088">
        <ele>1388</ele>
        <time>2022-07-06T12:13:27Z</time>
      </trkpt>
      <trkpt lat="42.51022" lon="2.39063">
        <ele>1385</ele>
        <time>2022-07-06T12:13:55Z</time>
      </trkpt>
      <trkpt lat="42.51039" lon="2.39047">
        <ele>1378</ele>
        <time>2022-07-06T12:14:23Z</time>
      </trkpt>
      <trkpt lat="42.51042" lon="2.39033">
        <ele>1378</ele>
        <time>2022-07-06T12:14:37Z</time>
      </trkpt>
      <trkpt lat="42.51034" lon="2.39028">
        <ele>1385</ele>
        <time>2022-07-06T12:14:49Z</time>
      </trkpt>
      <trkpt lat="42.51017" lon="2.39046">
        <ele>1392</ele>
        <time>2022-07-06T12:15:18Z</time>
      </trkpt>
      <trkpt lat="42.51008" lon="2.39061">
        <ele>1395</ele>
        <time>2022-07-06T12:15:37Z</time>
      </trkpt>
      <trkpt lat="42.50999" lon="2.39067">
        <ele>1399</ele>
        <time>2022-07-06T12:15:50Z</time>
      </trkpt>
      <trkpt lat="42.50992" lon="2.39066">
        <ele>1403</ele>
        <time>2022-07-06T12:16:00Z</time>
      </trkpt>
      <trkpt lat="42.50992" lon="2.39071">
        <ele>1402</ele>
        <time>2022-07-06T12:16:05Z</time>
      </trkpt>
      <trkpt lat="42.50972" lon="2.39078">
        <ele>1412</ele>
        <time>2022-07-06T12:16:32Z</time>
      </trkpt>
      <trkpt lat="42.50951" lon="2.39104">
        <ele>1422</ele>
        <time>2022-07-06T12:17:10Z</time>
      </trkpt>
      <trkpt lat="42.50942" lon="2.39111">
        <ele>1427</ele>
        <time>2022-07-06T12:17:24Z</time>
      </trkpt>
      <trkpt lat="42.50942" lon="2.39127">
        <ele>1427</ele>
        <time>2022-07-06T12:17:40Z</time>
      </trkpt>
      <trkpt lat="42.50943" lon="2.39129">
        <ele>1426</ele>
        <time>2022-07-06T12:17:42Z</time>
      </trkpt>
      <trkpt lat="42.50944" lon="2.39126">
        <ele>1426</ele>
        <time>2022-07-06T12:17:45Z</time>
      </trkpt>
      <trkpt lat="42.50951" lon="2.39145">
        <ele>1421</ele>
        <time>2022-07-06T12:18:06Z</time>
      </trkpt>
      <trkpt lat="42.50967" lon="2.39162">
        <ele>1412</ele>
        <time>2022-07-06T12:18:33Z</time>
      </trkpt>
      <trkpt lat="42.5097" lon="2.3917">
        <ele>1411</ele>
        <time>2022-07-06T12:18:42Z</time>
      </trkpt>
      <trkpt lat="42.50973" lon="2.39199">
        <ele>1418</ele>
        <time>2022-07-06T12:19:11Z</time>
      </trkpt>
      <trkpt lat="42.5097" lon="2.39206">
        <ele>1422</ele>
        <time>2022-07-06T12:19:19Z</time>
      </trkpt>
      <trkpt lat="42.5097" lon="2.39227">
        <ele>1429</ele>
        <time>2022-07-06T12:19:40Z</time>
      </trkpt>
      <trkpt lat="42.50979" lon="2.3924">
        <ele>1428</ele>
        <time>2022-07-06T12:19:57Z</time>
      </trkpt>
      <trkpt lat="42.5098" lon="2.39253">
        <ele>1431</ele>
        <time>2022-07-06T12:20:10Z</time>
      </trkpt>
      <trkpt lat="42.50976" lon="2.39265">
        <ele>1437</ele>
        <time>2022-07-06T12:20:23Z</time>
      </trkpt>
      <trkpt lat="42.50976" lon="2.39276">
        <ele>1440</ele>
        <time>2022-07-06T12:20:34Z</time>
      </trkpt>
      <trkpt lat="42.50974" lon="2.39277">
        <ele>1441</ele>
        <time>2022-07-06T12:20:37Z</time>
      </trkpt>
      <trkpt lat="42.50972" lon="2.39273">
        <ele>1441</ele>
        <time>2022-07-06T12:20:41Z</time>
      </trkpt>
      <trkpt lat="42.50975" lon="2.39271">
        <ele>1439</ele>
        <time>2022-07-06T12:20:46Z</time>
      </trkpt>
      <trkpt lat="42.50972" lon="2.39265">
        <ele>1439</ele>
        <time>2022-07-06T12:20:53Z</time>
      </trkpt>
      <trkpt lat="42.50952" lon="2.39243">
        <ele>1443</ele>
        <time>2022-07-06T12:21:27Z</time>
      </trkpt>
      <trkpt lat="42.50951" lon="2.39251">
        <ele>1446</ele>
        <time>2022-07-06T12:21:35Z</time>
      </trkpt>
      <trkpt lat="42.50964" lon="2.39298">
        <ele>1452</ele>
        <time>2022-07-06T12:22:25Z</time>
      </trkpt>
      <trkpt lat="42.50963" lon="2.39328">
        <ele>1461</ele>
        <time>2022-07-06T12:22:54Z</time>
      </trkpt>
      <trkpt lat="42.50967" lon="2.39357">
        <ele>1461</ele>
        <time>2022-07-06T12:23:23Z</time>
      </trkpt>
      <trkpt lat="42.5096" lon="2.39367">
        <ele>1464</ele>
        <time>2022-07-06T12:23:37Z</time>
      </trkpt>
      <trkpt lat="42.50952" lon="2.3937">
        <ele>1467</ele>
        <time>2022-07-06T12:23:48Z</time>
      </trkpt>
      <trkpt lat="42.50939" lon="2.3938">
        <ele>1472</ele>
        <time>2022-07-06T12:24:08Z</time>
      </trkpt>
      <trkpt lat="42.50916" lon="2.39389">
        <ele>1481</ele>
        <time>2022-07-06T12:24:40Z</time>
      </trkpt>
      <trkpt lat="42.50884" lon="2.39412">
        <ele>1494</ele>
        <time>2022-07-06T12:25:28Z</time>
      </trkpt>
      <trkpt lat="42.50856" lon="2.3946">
        <ele>1494</ele>
        <time>2022-07-06T12:26:28Z</time>
      </trkpt>
      <trkpt lat="42.50845" lon="2.39469">
        <ele>1496</ele>
        <time>2022-07-06T12:26:46Z</time>
      </trkpt>
      <trkpt lat="42.50818" lon="2.39488">
        <ele>1498</ele>
        <time>2022-07-06T12:27:26Z</time>
      </trkpt>
      <trkpt lat="42.5079" lon="2.39494">
        <ele>1499</ele>
        <time>2022-07-06T12:28:04Z</time>
      </trkpt>
      <trkpt lat="42.50719" lon="2.39484">
        <ele>1510</ele>
        <time>2022-07-06T12:29:39Z</time>
      </trkpt>
      <trkpt lat="42.50687" lon="2.39486">
        <ele>1511</ele>
        <time>2022-07-06T12:30:22Z</time>
      </trkpt>
      <trkpt lat="42.50641" lon="2.39473">
        <ele>1517</ele>
        <time>2022-07-06T12:31:25Z</time>
      </trkpt>
      <trkpt lat="42.50614" lon="2.39474">
        <ele>1517</ele>
        <time>2022-07-06T12:32:01Z</time>
      </trkpt>
      <trkpt lat="42.5058" lon="2.39481">
        <ele>1516</ele>
        <time>2022-07-06T12:32:47Z</time>
      </trkpt>
      <trkpt lat="42.50517" lon="2.39457">
        <ele>1543</ele>
        <time>2022-07-06T12:34:14Z</time>
      </trkpt>
      <trkpt lat="42.50499" lon="2.39459">
        <ele>1547</ele>
        <time>2022-07-06T12:34:38Z</time>
      </trkpt>
      <trkpt lat="42.50496" lon="2.39467">
        <ele>1547</ele>
        <time>2022-07-06T12:34:47Z</time>
      </trkpt>
      <trkpt lat="42.50492" lon="2.39461">
        <ele>1551</ele>
        <time>2022-07-06T12:34:55Z</time>
      </trkpt>
      <trkpt lat="42.50489" lon="2.39445">
        <ele>1556</ele>
        <time>2022-07-06T12:35:11Z</time>
      </trkpt>
      <trkpt lat="42.50493" lon="2.39451">
        <ele>1553</ele>
        <time>2022-07-06T12:35:19Z</time>
      </trkpt>
      <trkpt lat="42.50492" lon="2.39474">
        <ele>1548</ele>
        <time>2022-07-06T12:35:42Z</time>
      </trkpt>
      <trkpt lat="42.50497" lon="2.39525">
        <ele>1536</ele>
        <time>2022-07-06T12:36:32Z</time>
      </trkpt>
      <trkpt lat="42.50491" lon="2.39557">
        <ele>1538</ele>
        <time>2022-07-06T12:37:05Z</time>
      </trkpt>
      <trkpt lat="42.50497" lon="2.39586">
        <ele>1532</ele>
        <time>2022-07-06T12:37:34Z</time>
      </trkpt>
      <trkpt lat="42.5049" lon="2.39601">
        <ele>1532</ele>
        <time>2022-07-06T12:37:52Z</time>
      </trkpt>
      <trkpt lat="42.50433" lon="2.39608">
        <ele>1557</ele>
        <time>2022-07-06T12:39:08Z</time>
      </trkpt>
      <trkpt lat="42.504" lon="2.39637">
        <ele>1560</ele>
        <time>2022-07-06T12:40:01Z</time>
      </trkpt>
      <trkpt lat="42.50366" lon="2.39652">
        <ele>1568</ele>
        <time>2022-07-06T12:40:48Z</time>
      </trkpt>
      <trkpt lat="42.50313" lon="2.39694">
        <ele>1574</ele>
        <time>2022-07-06T12:42:10Z</time>
      </trkpt>
      <trkpt lat="42.50299" lon="2.39699">
        <ele>1578</ele>
        <time>2022-07-06T12:42:30Z</time>
      </trkpt>
      <trkpt lat="42.50295" lon="2.39715">
        <ele>1574</ele>
        <time>2022-07-06T12:42:46Z</time>
      </trkpt>
      <trkpt lat="42.5028" lon="2.39727">
        <ele>1576</ele>
        <time>2022-07-06T12:43:09Z</time>
      </trkpt>
      <trkpt lat="42.50239" lon="2.39734">
        <ele>1591</ele>
        <time>2022-07-06T12:44:05Z</time>
      </trkpt>
      <trkpt lat="42.50216" lon="2.39735">
        <ele>1603</ele>
        <time>2022-07-06T12:44:35Z</time>
      </trkpt>
      <trkpt lat="42.50209" lon="2.39761">
        <ele>1604</ele>
        <time>2022-07-06T12:45:03Z</time>
      </trkpt>
      <trkpt lat="42.50226" lon="2.39782">
        <ele>1598</ele>
        <time>2022-07-06T12:45:33Z</time>
      </trkpt>
      <trkpt lat="42.50309" lon="2.39865">
        <ele>1582</ele>
        <time>2022-07-06T12:47:51Z</time>
      </trkpt>
      <trkpt lat="42.50318" lon="2.39887">
        <ele>1585</ele>
        <time>2022-07-06T12:48:16Z</time>
      </trkpt>
      <trkpt lat="42.50317" lon="2.39904">
        <ele>1590</ele>
        <time>2022-07-06T12:48:32Z</time>
      </trkpt>
      <trkpt lat="42.50322" lon="2.39929">
        <ele>1593</ele>
        <time>2022-07-06T12:48:58Z</time>
      </trkpt>
      <trkpt lat="42.50326" lon="2.3997">
        <ele>1595</ele>
        <time>2022-07-06T12:49:39Z</time>
      </trkpt>
      <trkpt lat="42.50321" lon="2.39993">
        <ele>1600</ele>
        <time>2022-07-06T12:50:02Z</time>
      </trkpt>
      <trkpt lat="42.50311" lon="2.40013">
        <ele>1604</ele>
        <time>2022-07-06T12:50:26Z</time>
      </trkpt>
      <trkpt lat="42.50297" lon="2.40031">
        <ele>1609</ele>
        <time>2022-07-06T12:50:52Z</time>
      </trkpt>
      <trkpt lat="42.50265" lon="2.40057">
        <ele>1621</ele>
        <time>2022-07-06T12:51:41Z</time>
      </trkpt>
      <trkpt lat="42.50253" lon="2.40075">
        <ele>1624</ele>
        <time>2022-07-06T12:52:05Z</time>
      </trkpt>
      <trkpt lat="42.50239" lon="2.4012">
        <ele>1618</ele>
        <time>2022-07-06T12:52:53Z</time>
      </trkpt>
      <trkpt lat="42.50159" lon="2.40171">
        <ele>1637</ele>
        <time>2022-07-06T12:54:51Z</time>
      </trkpt>
      <trkpt lat="42.50148" lon="2.40186">
        <ele>1638</ele>
        <time>2022-07-06T12:55:12Z</time>
      </trkpt>
      <trkpt lat="42.50131" lon="2.4022">
        <ele>1636</ele>
        <time>2022-07-06T12:55:53Z</time>
      </trkpt>
      <trkpt lat="42.50102" lon="2.40251">
        <ele>1639</ele>
        <time>2022-07-06T12:56:42Z</time>
      </trkpt>
      <trkpt lat="42.50075" lon="2.40261">
        <ele>1648</ele>
        <time>2022-07-06T12:57:19Z</time>
      </trkpt>
      <trkpt lat="42.50045" lon="2.40289">
        <ele>1650</ele>
        <time>2022-07-06T12:58:08Z</time>
      </trkpt>
      <trkpt lat="42.5001" lon="2.40302">
        <ele>1658</ele>
        <time>2022-07-06T12:58:56Z</time>
      </trkpt>
      <trkpt lat="42.49997" lon="2.40296">
        <ele>1666</ele>
        <time>2022-07-06T12:59:15Z</time>
      </trkpt>
      <trkpt lat="42.49975" lon="2.40304">
        <ele>1672</ele>
        <time>2022-07-06T12:59:45Z</time>
      </trkpt>
      <trkpt lat="42.49965" lon="2.40347">
        <ele>1666</ele>
        <time>2022-07-06T13:00:29Z</time>
      </trkpt>
      <trkpt lat="42.4994" lon="2.40371">
        <ele>1675</ele>
        <time>2022-07-06T13:01:10Z</time>
      </trkpt>
      <trkpt lat="42.49935" lon="2.40386">
        <ele>1676</ele>
        <time>2022-07-06T13:01:26Z</time>
      </trkpt>
      <trkpt lat="42.49892" lon="2.40395">
        <ele>1692</ele>
        <time>2022-07-06T13:02:24Z</time>
      </trkpt>
      <trkpt lat="42.4989" lon="2.40404">
        <ele>1691</ele>
        <time>2022-07-06T13:02:34Z</time>
      </trkpt>
      <trkpt lat="42.49911" lon="2.40432">
        <ele>1685</ele>
        <time>2022-07-06T13:03:13Z</time>
      </trkpt>
      <trkpt lat="42.49929" lon="2.4044">
        <ele>1682</ele>
        <time>2022-07-06T13:03:38Z</time>
      </trkpt>
      <trkpt lat="42.49967" lon="2.40476">
        <ele>1684</ele>
        <time>2022-07-06T13:04:40Z</time>
      </trkpt>
      <trkpt lat="42.49976" lon="2.4048">
        <ele>1684</ele>
        <time>2022-07-06T13:04:53Z</time>
      </trkpt>
      <trkpt lat="42.50009" lon="2.40511">
        <ele>1687</ele>
        <time>2022-07-06T13:05:46Z</time>
      </trkpt>
      <trkpt lat="42.50039" lon="2.40527">
        <ele>1682</ele>
        <time>2022-07-06T13:06:29Z</time>
      </trkpt>
      <trkpt lat="42.50043" lon="2.40564">
        <ele>1691</ele>
        <time>2022-07-06T13:07:06Z</time>
      </trkpt>
      <trkpt lat="42.50048" lon="2.40583">
        <ele>1694</ele>
        <time>2022-07-06T13:07:26Z</time>
      </trkpt>
      <trkpt lat="42.50049" lon="2.40622">
        <ele>1697</ele>
        <time>2022-07-06T13:08:04Z</time>
      </trkpt>
      <trkpt lat="42.50043" lon="2.40642">
        <ele>1701</ele>
        <time>2022-07-06T13:08:26Z</time>
      </trkpt>
      <trkpt lat="42.50049" lon="2.40693">
        <ele>1702</ele>
        <time>2022-07-06T13:09:16Z</time>
      </trkpt>
      <trkpt lat="42.50048" lon="2.40711">
        <ele>1704</ele>
        <time>2022-07-06T13:09:34Z</time>
      </trkpt>
      <trkpt lat="42.50034" lon="2.40757">
        <ele>1712</ele>
        <time>2022-07-06T13:10:23Z</time>
      </trkpt>
      <trkpt lat="42.50031" lon="2.40784">
        <ele>1715</ele>
        <time>2022-07-06T13:10:50Z</time>
      </trkpt>
      <trkpt lat="42.5003" lon="2.4085">
        <ele>1718</ele>
        <time>2022-07-06T13:11:55Z</time>
      </trkpt>
      <trkpt lat="42.5002" lon="2.40864">
        <ele>1718</ele>
        <time>2022-07-06T13:12:14Z</time>
      </trkpt>
      <trkpt lat="42.50016" lon="2.40867">
        <ele>1718</ele>
        <time>2022-07-06T13:12:20Z</time>
      </trkpt>
      <trkpt lat="42.50004" lon="2.40864">
        <ele>1720</ele>
        <time>2022-07-06T13:12:37Z</time>
      </trkpt>
      <trkpt lat="42.49994" lon="2.40865">
        <ele>1722</ele>
        <time>2022-07-06T13:12:50Z</time>
      </trkpt>
      <trkpt lat="42.49998" lon="2.40867">
        <ele>1721</ele>
        <time>2022-07-06T13:12:56Z</time>
      </trkpt>
      <trkpt lat="42.49928" lon="2.40881">
        <ele>1730</ele>
        <time>2022-07-06T13:14:30Z</time>
      </trkpt>
      <trkpt lat="42.4991" lon="2.40888">
        <ele>1732</ele>
        <time>2022-07-06T13:14:55Z</time>
      </trkpt>
      <trkpt lat="42.49854" lon="2.40894">
        <ele>1745</ele>
        <time>2022-07-06T13:16:10Z</time>
      </trkpt>
      <trkpt lat="42.49822" lon="2.40905">
        <ele>1751</ele>
        <time>2022-07-06T13:16:54Z</time>
      </trkpt>
      <trkpt lat="42.49804" lon="2.4092">
        <ele>1751</ele>
        <time>2022-07-06T13:17:22Z</time>
      </trkpt>
      <trkpt lat="42.49784" lon="2.40958">
        <ele>1744</ele>
        <time>2022-07-06T13:18:08Z</time>
      </trkpt>
      <trkpt lat="42.49771" lon="2.40973">
        <ele>1743</ele>
        <time>2022-07-06T13:18:31Z</time>
      </trkpt>
      <trkpt lat="42.49742" lon="2.41">
        <ele>1743</ele>
        <time>2022-07-06T13:19:18Z</time>
      </trkpt>
      <trkpt lat="42.49722" lon="2.41013">
        <ele>1743</ele>
        <time>2022-07-06T13:19:47Z</time>
      </trkpt>
      <trkpt lat="42.49704" lon="2.4102">
        <ele>1743</ele>
        <time>2022-07-06T13:20:12Z</time>
      </trkpt>
      <trkpt lat="42.49682" lon="2.41009">
        <ele>1751</ele>
        <time>2022-07-06T13:20:44Z</time>
      </trkpt>
      <trkpt lat="42.49646" lon="2.40986">
        <ele>1761</ele>
        <time>2022-07-06T13:21:37Z</time>
      </trkpt>
      <trkpt lat="42.4959" lon="2.40964">
        <ele>1767</ele>
        <time>2022-07-06T13:22:55Z</time>
      </trkpt>
      <trkpt lat="42.49574" lon="2.40962">
        <ele>1769</ele>
        <time>2022-07-06T13:23:16Z</time>
      </trkpt>
      <trkpt lat="42.49554" lon="2.40971">
        <ele>1766</ele>
        <time>2022-07-06T13:23:44Z</time>
      </trkpt>
      <trkpt lat="42.49536" lon="2.40973">
        <ele>1767</ele>
        <time>2022-07-06T13:24:08Z</time>
      </trkpt>
      <trkpt lat="42.49511" lon="2.40986">
        <ele>1761</ele>
        <time>2022-07-06T13:24:44Z</time>
      </trkpt>
      <trkpt lat="42.49491" lon="2.40993">
        <ele>1762</ele>
        <time>2022-07-06T13:25:12Z</time>
      </trkpt>
      <trkpt lat="42.49442" lon="2.41004">
        <ele>1779</ele>
        <time>2022-07-06T13:26:18Z</time>
      </trkpt>
      <trkpt lat="42.49424" lon="2.41012">
        <ele>1783</ele>
        <time>2022-07-06T13:26:43Z</time>
      </trkpt>
      <trkpt lat="42.4941" lon="2.41013">
        <ele>1788</ele>
        <time>2022-07-06T13:27:02Z</time>
      </trkpt>
      <trkpt lat="42.4939" lon="2.41028">
        <ele>1784</ele>
        <time>2022-07-06T13:27:32Z</time>
      </trkpt>
      <trkpt lat="42.49371" lon="2.41037">
        <ele>1783</ele>
        <time>2022-07-06T13:27:59Z</time>
      </trkpt>
      <trkpt lat="42.49356" lon="2.41041">
        <ele>1784</ele>
        <time>2022-07-06T13:28:20Z</time>
      </trkpt>
      <trkpt lat="42.49326" lon="2.41042">
        <ele>1791</ele>
        <time>2022-07-06T13:29:00Z</time>
      </trkpt>
      <trkpt lat="42.49316" lon="2.41038">
        <ele>1796</ele>
        <time>2022-07-06T13:29:14Z</time>
      </trkpt>
      <trkpt lat="42.49306" lon="2.4103">
        <ele>1802</ele>
        <time>2022-07-06T13:29:29Z</time>
      </trkpt>
      <trkpt lat="42.49299" lon="2.41032">
        <ele>1803</ele>
        <time>2022-07-06T13:29:39Z</time>
      </trkpt>
      <trkpt lat="42.49288" lon="2.41059">
        <ele>1794</ele>
        <time>2022-07-06T13:30:09Z</time>
      </trkpt>
      <trkpt lat="42.49262" lon="2.41078">
        <ele>1794</ele>
        <time>2022-07-06T13:30:48Z</time>
      </trkpt>
      <trkpt lat="42.4925" lon="2.41091">
        <ele>1794</ele>
        <time>2022-07-06T13:31:09Z</time>
      </trkpt>
      <trkpt lat="42.49235" lon="2.41102">
        <ele>1796</ele>
        <time>2022-07-06T13:31:32Z</time>
      </trkpt>
      <trkpt lat="42.49221" lon="2.41111">
        <ele>1798</ele>
        <time>2022-07-06T13:31:52Z</time>
      </trkpt>
      <trkpt lat="42.49208" lon="2.41116">
        <ele>1802</ele>
        <time>2022-07-06T13:32:10Z</time>
      </trkpt>
      <trkpt lat="42.49187" lon="2.41133">
        <ele>1803</ele>
        <time>2022-07-06T13:32:43Z</time>
      </trkpt>
      <trkpt lat="42.49171" lon="2.41142">
        <ele>1805</ele>
        <time>2022-07-06T13:33:06Z</time>
      </trkpt>
      <trkpt lat="42.4914" lon="2.41151">
        <ele>1811</ele>
        <time>2022-07-06T13:33:48Z</time>
      </trkpt>
      <trkpt lat="42.49124" lon="2.41145">
        <ele>1819</ele>
        <time>2022-07-06T13:34:11Z</time>
      </trkpt>
      <trkpt lat="42.49105" lon="2.41147">
        <ele>1824</ele>
        <time>2022-07-06T13:34:36Z</time>
      </trkpt>
      <trkpt lat="42.49098" lon="2.4115">
        <ele>1825</ele>
        <time>2022-07-06T13:34:46Z</time>
      </trkpt>
      <trkpt lat="42.49097" lon="2.41155">
        <ele>1823</ele>
        <time>2022-07-06T13:34:51Z</time>
      </trkpt>
      <trkpt lat="42.49101" lon="2.41157">
        <ele>1821</ele>
        <time>2022-07-06T13:34:57Z</time>
      </trkpt>
      <trkpt lat="42.49072" lon="2.41194">
        <ele>1819</ele>
        <time>2022-07-06T13:35:50Z</time>
      </trkpt>
      <trkpt lat="42.4904" lon="2.41229">
        <ele>1823</ele>
        <time>2022-07-06T13:36:45Z</time>
      </trkpt>
      <trkpt lat="42.49009" lon="2.4125">
        <ele>1831</ele>
        <time>2022-07-06T13:37:31Z</time>
      </trkpt>
      <trkpt lat="42.48974" lon="2.41283">
        <ele>1832</ele>
        <time>2022-07-06T13:38:28Z</time>
      </trkpt>
      <trkpt lat="42.48956" lon="2.41296">
        <ele>1833</ele>
        <time>2022-07-06T13:38:55Z</time>
      </trkpt>
      <trkpt lat="42.48862" lon="2.41354">
        <ele>1839</ele>
        <time>2022-07-06T13:41:13Z</time>
      </trkpt>
      <trkpt lat="42.48847" lon="2.41353">
        <ele>1843</ele>
        <time>2022-07-06T13:41:33Z</time>
      </trkpt>
      <trkpt lat="42.48833" lon="2.41349">
        <ele>1847</ele>
        <time>2022-07-06T13:41:52Z</time>
      </trkpt>
      <trkpt lat="42.4882" lon="2.41341">
        <ele>1850</ele>
        <time>2022-07-06T13:42:11Z</time>
      </trkpt>
      <trkpt lat="42.48794" lon="2.41332">
        <ele>1854</ele>
        <time>2022-07-06T13:42:47Z</time>
      </trkpt>
      <trkpt lat="42.48785" lon="2.41329">
        <ele>1856</ele>
        <time>2022-07-06T13:42:59Z</time>
      </trkpt>
      <trkpt lat="42.4877" lon="2.41329">
        <ele>1856</ele>
        <time>2022-07-06T13:43:19Z</time>
      </trkpt>
      <trkpt lat="42.48741" lon="2.41318">
        <ele>1863</ele>
        <time>2022-07-06T13:43:59Z</time>
      </trkpt>
      <trkpt lat="42.48735" lon="2.41309">
        <ele>1867</ele>
        <time>2022-07-06T13:44:11Z</time>
      </trkpt>
      <trkpt lat="42.48709" lon="2.41293">
        <ele>1873</ele>
        <time>2022-07-06T13:44:49Z</time>
      </trkpt>
      <trkpt lat="42.48647" lon="2.41264">
        <ele>1880</ele>
        <time>2022-07-06T13:46:17Z</time>
      </trkpt>
      <trkpt lat="42.4864" lon="2.41248">
        <ele>1885</ele>
        <time>2022-07-06T13:46:35Z</time>
      </trkpt>
      <trkpt lat="42.48628" lon="2.41242">
        <ele>1887</ele>
        <time>2022-07-06T13:46:52Z</time>
      </trkpt>
      <trkpt lat="42.48613" lon="2.41241">
        <ele>1886</ele>
        <time>2022-07-06T13:47:12Z</time>
      </trkpt>
      <trkpt lat="42.48589" lon="2.41224">
        <ele>1890</ele>
        <time>2022-07-06T13:47:48Z</time>
      </trkpt>
      <trkpt lat="42.48569" lon="2.41251">
        <ele>1886</ele>
        <time>2022-07-06T13:48:26Z</time>
      </trkpt>
      <trkpt lat="42.4856" lon="2.41258">
        <ele>1887</ele>
        <time>2022-07-06T13:48:40Z</time>
      </trkpt>
      <trkpt lat="42.48525" lon="2.41276">
        <ele>1892</ele>
        <time>2022-07-06T13:49:30Z</time>
      </trkpt>
      <trkpt lat="42.48518" lon="2.41283">
        <ele>1892</ele>
        <time>2022-07-06T13:49:41Z</time>
      </trkpt>
      <trkpt lat="42.48518" lon="2.41277">
        <ele>1893</ele>
        <time>2022-07-06T13:49:47Z</time>
      </trkpt>
      <trkpt lat="42.48518" lon="2.41281">
        <ele>1892</ele>
        <time>2022-07-06T13:49:51Z</time>
      </trkpt>
      <trkpt lat="42.48513" lon="2.41289">
        <ele>1892</ele>
        <time>2022-07-06T13:50:02Z</time>
      </trkpt>
      <trkpt lat="42.48512" lon="2.41282">
        <ele>1894</ele>
        <time>2022-07-06T13:50:09Z</time>
      </trkpt>
      <trkpt lat="42.48515" lon="2.4127">
        <ele>1896</ele>
        <time>2022-07-06T13:50:21Z</time>
      </trkpt>
      <trkpt lat="42.48504" lon="2.41271">
        <ele>1898</ele>
        <time>2022-07-06T13:50:36Z</time>
      </trkpt>
      <trkpt lat="42.48509" lon="2.41232">
        <ele>1906</ele>
        <time>2022-07-06T13:51:15Z</time>
      </trkpt>
      <trkpt lat="42.48508" lon="2.41217">
        <ele>1910</ele>
        <time>2022-07-06T13:51:30Z</time>
      </trkpt>
      <trkpt lat="42.48505" lon="2.41209">
        <ele>1912</ele>
        <time>2022-07-06T13:51:38Z</time>
      </trkpt>
      <trkpt lat="42.48497" lon="2.41204">
        <ele>1916</ele>
        <time>2022-07-06T13:51:50Z</time>
      </trkpt>
      <trkpt lat="42.48483" lon="2.4117">
        <ele>1928</ele>
        <time>2022-07-06T13:52:29Z</time>
      </trkpt>
      <trkpt lat="42.48476" lon="2.41168">
        <ele>1930</ele>
        <time>2022-07-06T13:52:38Z</time>
      </trkpt>
      <trkpt lat="42.4847" lon="2.41163">
        <ele>1933</ele>
        <time>2022-07-06T13:52:47Z</time>
      </trkpt>
      <trkpt lat="42.48469" lon="2.41138">
        <ele>1939</ele>
        <time>2022-07-06T13:53:12Z</time>
      </trkpt>
      <trkpt lat="42.48465" lon="2.41131">
        <ele>1942</ele>
        <time>2022-07-06T13:53:21Z</time>
      </trkpt>
      <trkpt lat="42.48462" lon="2.41113">
        <ele>1947</ele>
        <time>2022-07-06T13:53:39Z</time>
      </trkpt>
      <trkpt lat="42.48455" lon="2.41103">
        <ele>1952</ele>
        <time>2022-07-06T13:53:53Z</time>
      </trkpt>
      <trkpt lat="42.48456" lon="2.41096">
        <ele>1953</ele>
        <time>2022-07-06T13:54:00Z</time>
      </trkpt>
      <trkpt lat="42.4845" lon="2.41096">
        <ele>1955</ele>
        <time>2022-07-06T13:54:08Z</time>
      </trkpt>
      <trkpt lat="42.48448" lon="2.41085">
        <ele>1959</ele>
        <time>2022-07-06T13:54:19Z</time>
      </trkpt>
      <trkpt lat="42.48442" lon="2.41084">
        <ele>1961</ele>
        <time>2022-07-06T13:54:27Z</time>
      </trkpt>
      <trkpt lat="42.48447" lon="2.41084">
        <ele>1959</ele>
        <time>2022-07-06T13:54:33Z</time>
      </trkpt>
      <trkpt lat="42.48448" lon="2.41086">
        <ele>1959</ele>
        <time>2022-07-06T13:54:36Z</time>
      </trkpt>
      <trkpt lat="42.48441" lon="2.41079">
        <ele>1963</ele>
        <time>2022-07-06T13:54:47Z</time>
      </trkpt>
      <trkpt lat="42.48431" lon="2.41083">
        <ele>1966</ele>
        <time>2022-07-06T13:55:01Z</time>
      </trkpt>
      <trkpt lat="42.48428" lon="2.41061">
        <ele>1973</ele>
        <time>2022-07-06T13:55:23Z</time>
      </trkpt>
      <trkpt lat="42.48425" lon="2.41056">
        <ele>1976</ele>
        <time>2022-07-06T13:55:30Z</time>
      </trkpt>
      <trkpt lat="42.4843" lon="2.41004">
        <ele>1988</ele>
        <time>2022-07-06T13:56:21Z</time>
      </trkpt>
      <trkpt lat="42.48433" lon="2.40996">
        <ele>1990</ele>
        <time>2022-07-06T13:56:30Z</time>
      </trkpt>
      <trkpt lat="42.48428" lon="2.40965">
        <ele>1999</ele>
        <time>2022-07-06T13:57:01Z</time>
      </trkpt>
      <trkpt lat="42.4843" lon="2.40951">
        <ele>2002</ele>
        <time>2022-07-06T13:57:15Z</time>
      </trkpt>
      <trkpt lat="42.48426" lon="2.40922">
        <ele>2010</ele>
        <time>2022-07-06T13:57:44Z</time>
      </trkpt>
      <trkpt lat="42.48428" lon="2.40911">
        <ele>2012</ele>
        <time>2022-07-06T13:57:56Z</time>
      </trkpt>
      <trkpt lat="42.48426" lon="2.409">
        <ele>2015</ele>
        <time>2022-07-06T13:58:07Z</time>
      </trkpt>
      <trkpt lat="42.48427" lon="2.40881">
        <ele>2018</ele>
        <time>2022-07-06T13:58:25Z</time>
      </trkpt>
      <trkpt lat="42.48419" lon="2.4086">
        <ele>2022</ele>
        <time>2022-07-06T13:58:49Z</time>
      </trkpt>
      <trkpt lat="42.48421" lon="2.40863">
        <ele>2022</ele>
        <time>2022-07-06T13:58:53Z</time>
      </trkpt>
      <trkpt lat="42.48423" lon="2.40858">
        <ele>2023</ele>
        <time>2022-07-06T13:58:58Z</time>
      </trkpt>
      <trkpt lat="42.48417" lon="2.40851">
        <ele>2024</ele>
        <time>2022-07-06T13:59:09Z</time>
      </trkpt>
      <trkpt lat="42.48412" lon="2.40836">
        <ele>2029</ele>
        <time>2022-07-06T13:59:25Z</time>
      </trkpt>
      <trkpt lat="42.48405" lon="2.40794">
        <ele>2041</ele>
        <time>2022-07-06T14:00:07Z</time>
      </trkpt>
      <trkpt lat="42.48389" lon="2.4075">
        <ele>2057</ele>
        <time>2022-07-06T14:00:56Z</time>
      </trkpt>
      <trkpt lat="42.48393" lon="2.40731">
        <ele>2060</ele>
        <time>2022-07-06T14:01:15Z</time>
      </trkpt>
      <trkpt lat="42.48397" lon="2.40732">
        <ele>2058</ele>
        <time>2022-07-06T14:01:21Z</time>
      </trkpt>
      <trkpt lat="42.48395" lon="2.4073">
        <ele>2059</ele>
        <time>2022-07-06T14:01:24Z</time>
      </trkpt>
      <trkpt lat="42.48397" lon="2.40709">
        <ele>2064</ele>
        <time>2022-07-06T14:01:45Z</time>
      </trkpt>
      <trkpt lat="42.48402" lon="2.40691">
        <ele>2067</ele>
        <time>2022-07-06T14:02:04Z</time>
      </trkpt>
      <trkpt lat="42.48406" lon="2.40685">
        <ele>2067</ele>
        <time>2022-07-06T14:02:12Z</time>
      </trkpt>
      <trkpt lat="42.48404" lon="2.40687">
        <ele>2067</ele>
        <time>2022-07-06T14:02:15Z</time>
      </trkpt>
      <trkpt lat="42.48399" lon="2.40684">
        <ele>2069</ele>
        <time>2022-07-06T14:02:22Z</time>
      </trkpt>
      <trkpt lat="42.48398" lon="2.40674">
        <ele>2072</ele>
        <time>2022-07-06T14:02:32Z</time>
      </trkpt>
      <trkpt lat="42.48394" lon="2.4067">
        <ele>2073</ele>
        <time>2022-07-06T14:02:39Z</time>
      </trkpt>
      <trkpt lat="42.48368" lon="2.40664">
        <ele>2077</ele>
        <time>2022-07-06T14:03:14Z</time>
      </trkpt>
      <trkpt lat="42.48365" lon="2.40658">
        <ele>2077</ele>
        <time>2022-07-06T14:03:21Z</time>
      </trkpt>
      <trkpt lat="42.48358" lon="2.40655">
        <ele>2078</ele>
        <time>2022-07-06T14:03:31Z</time>
      </trkpt>
      <trkpt lat="42.48352" lon="2.40656">
        <ele>2078</ele>
        <time>2022-07-06T14:03:39Z</time>
      </trkpt>
      <trkpt lat="42.48349" lon="2.4066">
        <ele>2079</ele>
        <time>2022-07-06T14:03:45Z</time>
      </trkpt>
      <trkpt lat="42.48349" lon="2.40658">
        <ele>2079</ele>
        <time>2022-07-06T14:03:47Z</time>
      </trkpt>
      <trkpt lat="42.48351" lon="2.4066">
        <ele>2079</ele>
        <time>2022-07-06T14:03:50Z</time>
      </trkpt>
      <trkpt lat="42.48351" lon="2.40658">
        <ele>2078</ele>
        <time>2022-07-06T14:03:52Z</time>
      </trkpt>
      <trkpt lat="42.48353" lon="2.40659">
        <ele>2078</ele>
        <time>2022-07-06T14:03:55Z</time>
      </trkpt>
      <trkpt lat="42.48348" lon="2.40658">
        <ele>2079</ele>
        <time>2022-07-06T14:04:01Z</time>
      </trkpt>
      <trkpt lat="42.48352" lon="2.4066">
        <ele>2078</ele>
        <time>2022-07-06T14:04:07Z</time>
      </trkpt>
      <trkpt lat="42.48349" lon="2.40656">
        <ele>2078</ele>
        <time>2022-07-06T14:04:13Z</time>
      </trkpt>
      <trkpt lat="42.4835" lon="2.40663">
        <ele>2079</ele>
        <time>2022-07-06T14:04:20Z</time>
      </trkpt>
      <trkpt lat="42.48327" lon="2.4068">
        <ele>2082</ele>
        <time>2022-07-06T14:04:55Z</time>
      </trkpt>
      <trkpt lat="42.48322" lon="2.40704">
        <ele>2084</ele>
        <time>2022-07-06T14:05:19Z</time>
      </trkpt>
      <trkpt lat="42.48316" lon="2.40709">
        <ele>2086</ele>
        <time>2022-07-06T14:05:29Z</time>
      </trkpt>
      <trkpt lat="42.48306" lon="2.40712">
        <ele>2089</ele>
        <time>2022-07-06T14:05:42Z</time>
      </trkpt>
      <trkpt lat="42.4829" lon="2.40728">
        <ele>2095</ele>
        <time>2022-07-06T14:06:09Z</time>
      </trkpt>
      <trkpt lat="42.48275" lon="2.40739">
        <ele>2102</ele>
        <time>2022-07-06T14:06:32Z</time>
      </trkpt>
      <trkpt lat="42.48269" lon="2.4074">
        <ele>2105</ele>
        <time>2022-07-06T14:06:40Z</time>
      </trkpt>
      <trkpt lat="42.48261" lon="2.40736">
        <ele>2107</ele>
        <time>2022-07-06T14:06:51Z</time>
      </trkpt>
      <trkpt lat="42.48248" lon="2.40735">
        <ele>2112</ele>
        <time>2022-07-06T14:07:08Z</time>
      </trkpt>
      <trkpt lat="42.48222" lon="2.4074">
        <ele>2121</ele>
        <time>2022-07-06T14:07:44Z</time>
      </trkpt>
      <trkpt lat="42.48216" lon="2.40737">
        <ele>2123</ele>
        <time>2022-07-06T14:07:52Z</time>
      </trkpt>
      <trkpt lat="42.48199" lon="2.40736">
        <ele>2128</ele>
        <time>2022-07-06T14:08:15Z</time>
      </trkpt>
      <trkpt lat="42.48177" lon="2.40727">
        <ele>2133</ele>
        <time>2022-07-06T14:08:45Z</time>
      </trkpt>
      <trkpt lat="42.48169" lon="2.40729">
        <ele>2136</ele>
        <time>2022-07-06T14:08:56Z</time>
      </trkpt>
      <trkpt lat="42.48171" lon="2.40751">
        <ele>2142</ele>
        <time>2022-07-06T14:09:18Z</time>
      </trkpt>
      <trkpt lat="42.48186" lon="2.40789">
        <ele>2139</ele>
        <time>2022-07-06T14:10:01Z</time>
      </trkpt>
      <trkpt lat="42.4818" lon="2.40796">
        <ele>2142</ele>
        <time>2022-07-06T14:10:11Z</time>
      </trkpt>
      <trkpt lat="42.48171" lon="2.40799">
        <ele>2145</ele>
        <time>2022-07-06T14:10:23Z</time>
      </trkpt>
      <trkpt lat="42.48151" lon="2.40813">
        <ele>2152</ele>
        <time>2022-07-06T14:10:53Z</time>
      </trkpt>
      <trkpt lat="42.48146" lon="2.40814">
        <ele>2153</ele>
        <time>2022-07-06T14:11:00Z</time>
      </trkpt>
      <trkpt lat="42.48131" lon="2.40804">
        <ele>2155</ele>
        <time>2022-07-06T14:11:23Z</time>
      </trkpt>
      <trkpt lat="42.48115" lon="2.40802">
        <ele>2159</ele>
        <time>2022-07-06T14:11:44Z</time>
      </trkpt>
      <trkpt lat="42.48098" lon="2.40795">
        <ele>2161</ele>
        <time>2022-07-06T14:12:08Z</time>
      </trkpt>
      <trkpt lat="42.48092" lon="2.40797">
        <ele>2163</ele>
        <time>2022-07-06T14:12:16Z</time>
      </trkpt>
      <trkpt lat="42.48094" lon="2.40795">
        <ele>2162</ele>
        <time>2022-07-06T14:12:19Z</time>
      </trkpt>
      <trkpt lat="42.48077" lon="2.408">
        <ele>2166</ele>
        <time>2022-07-06T14:12:42Z</time>
      </trkpt>
      <trkpt lat="42.48069" lon="2.40807">
        <ele>2168</ele>
        <time>2022-07-06T14:12:55Z</time>
      </trkpt>
      <trkpt lat="42.48051" lon="2.40813">
        <ele>2172</ele>
        <time>2022-07-06T14:13:20Z</time>
      </trkpt>
      <trkpt lat="42.48019" lon="2.40834">
        <ele>2183</ele>
        <time>2022-07-06T14:14:07Z</time>
      </trkpt>
      <trkpt lat="42.48005" lon="2.40838">
        <ele>2186</ele>
        <time>2022-07-06T14:14:26Z</time>
      </trkpt>
      <trkpt lat="42.47999" lon="2.40843">
        <ele>2188</ele>
        <time>2022-07-06T14:14:36Z</time>
      </trkpt>
      <trkpt lat="42.47992" lon="2.40844">
        <ele>2190</ele>
        <time>2022-07-06T14:14:45Z</time>
      </trkpt>
      <trkpt lat="42.47987" lon="2.40839">
        <ele>2190</ele>
        <time>2022-07-06T14:14:54Z</time>
      </trkpt>
      <trkpt lat="42.47988" lon="2.40842">
        <ele>2190</ele>
        <time>2022-07-06T14:14:57Z</time>
      </trkpt>
      <trkpt lat="42.47989" lon="2.4084">
        <ele>2190</ele>
        <time>2022-07-06T14:14:59Z</time>
      </trkpt>
      <trkpt lat="42.47976" lon="2.40849">
        <ele>2194</ele>
        <time>2022-07-06T14:15:19Z</time>
      </trkpt>
      <trkpt lat="42.47939" lon="2.40856">
        <ele>2202</ele>
        <time>2022-07-06T14:16:08Z</time>
      </trkpt>
      <trkpt lat="42.47922" lon="2.4085">
        <ele>2205</ele>
        <time>2022-07-06T14:16:32Z</time>
      </trkpt>
      <trkpt lat="42.47906" lon="2.4084">
        <ele>2205</ele>
        <time>2022-07-06T14:16:55Z</time>
      </trkpt>
      <trkpt lat="42.47888" lon="2.40838">
        <ele>2207</ele>
        <time>2022-07-06T14:17:20Z</time>
      </trkpt>
      <trkpt lat="42.47875" lon="2.40844">
        <ele>2211</ele>
        <time>2022-07-06T14:17:38Z</time>
      </trkpt>
      <trkpt lat="42.47866" lon="2.40844">
        <ele>2213</ele>
        <time>2022-07-06T14:17:50Z</time>
      </trkpt>
      <trkpt lat="42.47847" lon="2.4085">
        <ele>2218</ele>
        <time>2022-07-06T14:18:16Z</time>
      </trkpt>
      <trkpt lat="42.4784" lon="2.40854">
        <ele>2221</ele>
        <time>2022-07-06T14:18:26Z</time>
      </trkpt>
      <trkpt lat="42.47833" lon="2.40862">
        <ele>2225</ele>
        <time>2022-07-06T14:18:38Z</time>
      </trkpt>
      <trkpt lat="42.47826" lon="2.40863">
        <ele>2226</ele>
        <time>2022-07-06T14:18:48Z</time>
      </trkpt>
      <trkpt lat="42.47825" lon="2.4087">
        <ele>2228</ele>
        <time>2022-07-06T14:18:55Z</time>
      </trkpt>
      <trkpt lat="42.47806" lon="2.40872">
        <ele>2229</ele>
        <time>2022-07-06T14:19:20Z</time>
      </trkpt>
      <trkpt lat="42.478" lon="2.40878">
        <ele>2231</ele>
        <time>2022-07-06T14:19:30Z</time>
      </trkpt>
      <trkpt lat="42.47779" lon="2.40879">
        <ele>2231</ele>
        <time>2022-07-06T14:19:58Z</time>
      </trkpt>
      <trkpt lat="42.4776" lon="2.40888">
        <ele>2234</ele>
        <time>2022-07-06T14:20:25Z</time>
      </trkpt>
      <trkpt lat="42.47755" lon="2.40902">
        <ele>2238</ele>
        <time>2022-07-06T14:20:40Z</time>
      </trkpt>
      <trkpt lat="42.47749" lon="2.40911">
        <ele>2240</ele>
        <time>2022-07-06T14:20:52Z</time>
      </trkpt>
      <trkpt lat="42.4773" lon="2.40927">
        <ele>2241</ele>
        <time>2022-07-06T14:21:22Z</time>
      </trkpt>
      <trkpt lat="42.47731" lon="2.40925">
        <ele>2241</ele>
        <time>2022-07-06T14:21:24Z</time>
      </trkpt>
      <trkpt lat="42.47705" lon="2.40958">
        <ele>2243</ele>
        <time>2022-07-06T14:22:12Z</time>
      </trkpt>
      <trkpt lat="42.47695" lon="2.40977">
        <ele>2245</ele>
        <time>2022-07-06T14:22:35Z</time>
      </trkpt>
      <trkpt lat="42.4768" lon="2.41019">
        <ele>2248</ele>
        <time>2022-07-06T14:23:21Z</time>
      </trkpt>
      <trkpt lat="42.47665" lon="2.41049">
        <ele>2250</ele>
        <time>2022-07-06T14:23:57Z</time>
      </trkpt>
      <trkpt lat="42.47657" lon="2.41063">
        <ele>2251</ele>
        <time>2022-07-06T14:24:14Z</time>
      </trkpt>
      <trkpt lat="42.47646" lon="2.41073">
        <ele>2251</ele>
        <time>2022-07-06T14:24:32Z</time>
      </trkpt>
      <trkpt lat="42.4763" lon="2.41097">
        <ele>2253</ele>
        <time>2022-07-06T14:25:03Z</time>
      </trkpt>
      <trkpt lat="42.47624" lon="2.41111">
        <ele>2254</ele>
        <time>2022-07-06T14:25:19Z</time>
      </trkpt>
      <trkpt lat="42.4762" lon="2.41132">
        <ele>2256</ele>
        <time>2022-07-06T14:25:41Z</time>
      </trkpt>
      <trkpt lat="42.47607" lon="2.41161">
        <ele>2259</ele>
        <time>2022-07-06T14:26:14Z</time>
      </trkpt>
      <trkpt lat="42.47606" lon="2.41206">
        <ele>2262</ele>
        <time>2022-07-06T14:26:58Z</time>
      </trkpt>
      <trkpt lat="42.47616" lon="2.41264">
        <ele>2263</ele>
        <time>2022-07-06T14:27:57Z</time>
      </trkpt>
      <trkpt lat="42.47613" lon="2.41303">
        <ele>2264</ele>
        <time>2022-07-06T14:28:36Z</time>
      </trkpt>
      <trkpt lat="42.47616" lon="2.41309">
        <ele>2263</ele>
        <time>2022-07-06T14:28:43Z</time>
      </trkpt>
      <trkpt lat="42.47615" lon="2.41318">
        <ele>2264</ele>
        <time>2022-07-06T14:28:52Z</time>
      </trkpt>
      <trkpt lat="42.47617" lon="2.41317">
        <ele>2263</ele>
        <time>2022-07-06T14:28:55Z</time>
      </trkpt>
      <trkpt lat="42.4761" lon="2.41335">
        <ele>2265</ele>
        <time>2022-07-06T14:29:15Z</time>
      </trkpt>
      <trkpt lat="42.47611" lon="2.41333">
        <ele>2265</ele>
        <time>2022-07-06T14:29:17Z</time>
      </trkpt>
      <trkpt lat="42.47602" lon="2.41403">
        <ele>2264</ele>
        <time>2022-07-06T14:30:27Z</time>
      </trkpt>
      <trkpt lat="42.47585" lon="2.41488">
        <ele>2260</ele>
        <time>2022-07-06T14:31:54Z</time>
      </trkpt>
      <trkpt lat="42.47576" lon="2.41512">
        <ele>2258</ele>
        <time>2022-07-06T14:32:20Z</time>
      </trkpt>
      <trkpt lat="42.47571" lon="2.41536">
        <ele>2255</ele>
        <time>2022-07-06T14:32:45Z</time>
      </trkpt>
      <trkpt lat="42.47576" lon="2.41554">
        <ele>2253</ele>
        <time>2022-07-06T14:33:04Z</time>
      </trkpt>
      <trkpt lat="42.47584" lon="2.41566">
        <ele>2251</ele>
        <time>2022-07-06T14:33:20Z</time>
      </trkpt>
      <trkpt lat="42.47582" lon="2.41586">
        <ele>2248</ele>
        <time>2022-07-06T14:33:39Z</time>
      </trkpt>
      <trkpt lat="42.47594" lon="2.416">
        <ele>2243</ele>
        <time>2022-07-06T14:34:01Z</time>
      </trkpt>
      <trkpt lat="42.47602" lon="2.41604">
        <ele>2240</ele>
        <time>2022-07-06T14:34:12Z</time>
      </trkpt>
      <trkpt lat="42.47607" lon="2.41613">
        <ele>2237</ele>
        <time>2022-07-06T14:34:23Z</time>
      </trkpt>
      <trkpt lat="42.47613" lon="2.41646">
        <ele>2227</ele>
        <time>2022-07-06T14:34:56Z</time>
      </trkpt>
      <trkpt lat="42.47609" lon="2.41648">
        <ele>2228</ele>
        <time>2022-07-06T14:35:02Z</time>
      </trkpt>
      <trkpt lat="42.4761" lon="2.41653">
        <ele>2226</ele>
        <time>2022-07-06T14:35:07Z</time>
      </trkpt>
      <trkpt lat="42.47603" lon="2.41662">
        <ele>2226</ele>
        <time>2022-07-06T14:35:20Z</time>
      </trkpt>
      <trkpt lat="42.47613" lon="2.41672">
        <ele>2222</ele>
        <time>2022-07-06T14:35:37Z</time>
      </trkpt>
      <trkpt lat="42.47633" lon="2.41678">
        <ele>2215</ele>
        <time>2022-07-06T14:36:04Z</time>
      </trkpt>
      <trkpt lat="42.47637" lon="2.41677">
        <ele>2214</ele>
        <time>2022-07-06T14:36:09Z</time>
      </trkpt>
      <trkpt lat="42.47652" lon="2.41726">
        <ele>2205</ele>
        <time>2022-07-06T14:37:02Z</time>
      </trkpt>
      <trkpt lat="42.4765" lon="2.41743">
        <ele>2204</ele>
        <time>2022-07-06T14:37:19Z</time>
      </trkpt>
      <trkpt lat="42.47646" lon="2.41753">
        <ele>2205</ele>
        <time>2022-07-06T14:37:30Z</time>
      </trkpt>
      <trkpt lat="42.47627" lon="2.41775">
        <ele>2211</ele>
        <time>2022-07-06T14:38:03Z</time>
      </trkpt>
      <trkpt lat="42.47623" lon="2.41796">
        <ele>2212</ele>
        <time>2022-07-06T14:38:25Z</time>
      </trkpt>
      <trkpt lat="42.47601" lon="2.41843">
        <ele>2221</ele>
        <time>2022-07-06T14:39:19Z</time>
      </trkpt>
      <trkpt lat="42.47598" lon="2.41863">
        <ele>2223</ele>
        <time>2022-07-06T14:39:39Z</time>
      </trkpt>
      <trkpt lat="42.476" lon="2.41925">
        <ele>2224</ele>
        <time>2022-07-06T14:40:40Z</time>
      </trkpt>
      <trkpt lat="42.47596" lon="2.41953">
        <ele>2228</ele>
        <time>2022-07-06T14:41:09Z</time>
      </trkpt>
      <trkpt lat="42.4759" lon="2.41972">
        <ele>2232</ele>
        <time>2022-07-06T14:41:29Z</time>
      </trkpt>
      <trkpt lat="42.47605" lon="2.42105">
        <ele>2236</ele>
        <time>2022-07-06T14:43:41Z</time>
      </trkpt>
      <trkpt lat="42.47606" lon="2.422">
        <ele>2242</ele>
        <time>2022-07-06T14:45:15Z</time>
      </trkpt>
      <trkpt lat="42.47604" lon="2.42209">
        <ele>2244</ele>
        <time>2022-07-06T14:45:24Z</time>
      </trkpt>
      <trkpt lat="42.47588" lon="2.42216">
        <ele>2251</ele>
        <time>2022-07-06T14:45:47Z</time>
      </trkpt>
      <trkpt lat="42.47567" lon="2.4224">
        <ele>2257</ele>
        <time>2022-07-06T14:46:23Z</time>
      </trkpt>
      <trkpt lat="42.4756" lon="2.42242">
        <ele>2258</ele>
        <time>2022-07-06T14:46:33Z</time>
      </trkpt>
      <trkpt lat="42.47549" lon="2.42251">
        <ele>2261</ele>
        <time>2022-07-06T14:46:50Z</time>
      </trkpt>
      <trkpt lat="42.47551" lon="2.42246">
        <ele>2260</ele>
        <time>2022-07-06T14:46:55Z</time>
      </trkpt>
      <trkpt lat="42.47557" lon="2.42246">
        <ele>2259</ele>
        <time>2022-07-06T14:47:03Z</time>
      </trkpt>
      <trkpt lat="42.47557" lon="2.42248">
        <ele>2259</ele>
        <time>2022-07-06T14:47:05Z</time>
      </trkpt>
      <trkpt lat="42.47553" lon="2.42248">
        <ele>2260</ele>
        <time>2022-07-06T14:47:11Z</time>
      </trkpt>
      <trkpt lat="42.4754" lon="2.42259">
        <ele>2263</ele>
        <time>2022-07-06T14:47:31Z</time>
      </trkpt>
      <trkpt lat="42.47504" lon="2.42318">
        <ele>2271</ele>
        <time>2022-07-06T14:48:47Z</time>
      </trkpt>
      <trkpt lat="42.47491" lon="2.42348">
        <ele>2273</ele>
        <time>2022-07-06T14:49:21Z</time>
      </trkpt>
      <trkpt lat="42.47473" lon="2.42439">
        <ele>2274</ele>
        <time>2022-07-06T14:50:54Z</time>
      </trkpt>
      <trkpt lat="42.4747" lon="2.42467">
        <ele>2274</ele>
        <time>2022-07-06T14:51:21Z</time>
      </trkpt>
      <trkpt lat="42.4747" lon="2.42489">
        <ele>2273</ele>
        <time>2022-07-06T14:51:43Z</time>
      </trkpt>
      <trkpt lat="42.47474" lon="2.4252">
        <ele>2273</ele>
        <time>2022-07-06T14:52:14Z</time>
      </trkpt>
      <trkpt lat="42.47478" lon="2.42528">
        <ele>2273</ele>
        <time>2022-07-06T14:52:24Z</time>
      </trkpt>
      <trkpt lat="42.47474" lon="2.42575">
        <ele>2275</ele>
        <time>2022-07-06T14:53:10Z</time>
      </trkpt>
      <trkpt lat="42.47493" lon="2.42628">
        <ele>2277</ele>
        <time>2022-07-06T14:54:08Z</time>
      </trkpt>
      <trkpt lat="42.47515" lon="2.42672">
        <ele>2280</ele>
        <time>2022-07-06T14:55:00Z</time>
      </trkpt>
      <trkpt lat="42.47527" lon="2.42693">
        <ele>2281</ele>
        <time>2022-07-06T14:55:27Z</time>
      </trkpt>
      <trkpt lat="42.47569" lon="2.42746">
        <ele>2286</ele>
        <time>2022-07-06T14:56:43Z</time>
      </trkpt>
      <trkpt lat="42.47581" lon="2.42768">
        <ele>2288</ele>
        <time>2022-07-06T14:57:10Z</time>
      </trkpt>
      <trkpt lat="42.47608" lon="2.42806">
        <ele>2292</ele>
        <time>2022-07-06T14:58:02Z</time>
      </trkpt>
      <trkpt lat="42.47623" lon="2.42849">
        <ele>2295</ele>
        <time>2022-07-06T14:58:49Z</time>
      </trkpt>
      <trkpt lat="42.47632" lon="2.42868">
        <ele>2295</ele>
        <time>2022-07-06T14:59:11Z</time>
      </trkpt>
      <trkpt lat="42.47642" lon="2.42875">
        <ele>2295</ele>
        <time>2022-07-06T14:59:26Z</time>
      </trkpt>
      <trkpt lat="42.47652" lon="2.42876">
        <ele>2296</ele>
        <time>2022-07-06T14:59:39Z</time>
      </trkpt>
      <trkpt lat="42.47658" lon="2.42882">
        <ele>2296</ele>
        <time>2022-07-06T14:59:49Z</time>
      </trkpt>
      <trkpt lat="42.4767" lon="2.42902">
        <ele>2296</ele>
        <time>2022-07-06T15:00:15Z</time>
      </trkpt>
      <trkpt lat="42.47682" lon="2.42907">
        <ele>2295</ele>
        <time>2022-07-06T15:00:32Z</time>
      </trkpt>
      <trkpt lat="42.47689" lon="2.42924">
        <ele>2294</ele>
        <time>2022-07-06T15:00:51Z</time>
      </trkpt>
      <trkpt lat="42.47698" lon="2.42934">
        <ele>2292</ele>
        <time>2022-07-06T15:01:06Z</time>
      </trkpt>
      <trkpt lat="42.477" lon="2.42941">
        <ele>2291</ele>
        <time>2022-07-06T15:01:14Z</time>
      </trkpt>
      <trkpt lat="42.47715" lon="2.42958">
        <ele>2289</ele>
        <time>2022-07-06T15:01:40Z</time>
      </trkpt>
      <trkpt lat="42.47727" lon="2.42996">
        <ele>2286</ele>
        <time>2022-07-06T15:02:20Z</time>
      </trkpt>
      <trkpt lat="42.47735" lon="2.42999">
        <ele>2287</ele>
        <time>2022-07-06T15:02:31Z</time>
      </trkpt>
      <trkpt lat="42.47747" lon="2.4302">
        <ele>2284</ele>
        <time>2022-07-06T15:02:58Z</time>
      </trkpt>
      <trkpt lat="42.47762" lon="2.43055">
        <ele>2279</ele>
        <time>2022-07-06T15:03:37Z</time>
      </trkpt>
      <trkpt lat="42.47798" lon="2.43108">
        <ele>2279</ele>
        <time>2022-07-06T15:04:48Z</time>
      </trkpt>
      <trkpt lat="42.47803" lon="2.4312">
        <ele>2280</ele>
        <time>2022-07-06T15:05:02Z</time>
      </trkpt>
      <trkpt lat="42.47818" lon="2.43136">
        <ele>2283</ele>
        <time>2022-07-06T15:05:27Z</time>
      </trkpt>
      <trkpt lat="42.47828" lon="2.43143">
        <ele>2285</ele>
        <time>2022-07-06T15:05:42Z</time>
      </trkpt>
      <trkpt lat="42.47833" lon="2.43157">
        <ele>2288</ele>
        <time>2022-07-06T15:05:58Z</time>
      </trkpt>
      <trkpt lat="42.47848" lon="2.43172">
        <ele>2292</ele>
        <time>2022-07-06T15:06:23Z</time>
      </trkpt>
      <trkpt lat="42.4786" lon="2.43193">
        <ele>2298</ele>
        <time>2022-07-06T15:06:49Z</time>
      </trkpt>
      <trkpt lat="42.47868" lon="2.43198">
        <ele>2301</ele>
        <time>2022-07-06T15:07:01Z</time>
      </trkpt>
      <trkpt lat="42.47875" lon="2.43198">
        <ele>2303</ele>
        <time>2022-07-06T15:07:10Z</time>
      </trkpt>
      <trkpt lat="42.47877" lon="2.43206">
        <ele>2305</ele>
        <time>2022-07-06T15:07:18Z</time>
      </trkpt>
      <trkpt lat="42.47876" lon="2.43217">
        <ele>2307</ele>
        <time>2022-07-06T15:07:29Z</time>
      </trkpt>
      <trkpt lat="42.47885" lon="2.43251">
        <ele>2318</ele>
        <time>2022-07-06T15:08:05Z</time>
      </trkpt>
      <trkpt lat="42.47896" lon="2.43271">
        <ele>2326</ele>
        <time>2022-07-06T15:08:29Z</time>
      </trkpt>
      <trkpt lat="42.47895" lon="2.43316">
        <ele>2338</ele>
        <time>2022-07-06T15:09:13Z</time>
      </trkpt>
      <trkpt lat="42.47888" lon="2.4337">
        <ele>2347</ele>
        <time>2022-07-06T15:10:07Z</time>
      </trkpt>
      <trkpt lat="42.47891" lon="2.43376">
        <ele>2349</ele>
        <time>2022-07-06T15:10:15Z</time>
      </trkpt>
      <trkpt lat="42.47893" lon="2.43399">
        <ele>2354</ele>
        <time>2022-07-06T15:10:37Z</time>
      </trkpt>
      <trkpt lat="42.47897" lon="2.43406">
        <ele>2358</ele>
        <time>2022-07-06T15:10:46Z</time>
      </trkpt>
      <trkpt lat="42.47898" lon="2.43427">
        <ele>2361</ele>
        <time>2022-07-06T15:11:07Z</time>
      </trkpt>
      <trkpt lat="42.47902" lon="2.43439">
        <ele>2364</ele>
        <time>2022-07-06T15:11:20Z</time>
      </trkpt>
      <trkpt lat="42.47908" lon="2.43436">
        <ele>2367</ele>
        <time>2022-07-06T15:11:28Z</time>
      </trkpt>
      <trkpt lat="42.47912" lon="2.4343">
        <ele>2368</ele>
        <time>2022-07-06T15:11:36Z</time>
      </trkpt>
      <trkpt lat="42.47918" lon="2.43434">
        <ele>2372</ele>
        <time>2022-07-06T15:11:45Z</time>
      </trkpt>
      <trkpt lat="42.47922" lon="2.43441">
        <ele>2374</ele>
        <time>2022-07-06T15:11:54Z</time>
      </trkpt>
      <trkpt lat="42.47931" lon="2.43442">
        <ele>2377</ele>
        <time>2022-07-06T15:12:06Z</time>
      </trkpt>
      <trkpt lat="42.47935" lon="2.43477">
        <ele>2382</ele>
        <time>2022-07-06T15:12:41Z</time>
      </trkpt>
      <trkpt lat="42.4794" lon="2.43469">
        <ele>2383</ele>
        <time>2022-07-06T15:12:51Z</time>
      </trkpt>
      <trkpt lat="42.47947" lon="2.43468">
        <ele>2386</ele>
        <time>2022-07-06T15:13:01Z</time>
      </trkpt>
      <trkpt lat="42.47961" lon="2.43457">
        <ele>2391</ele>
        <time>2022-07-06T15:13:22Z</time>
      </trkpt>
      <trkpt lat="42.47966" lon="2.43447">
        <ele>2391</ele>
        <time>2022-07-06T15:13:34Z</time>
      </trkpt>
      <trkpt lat="42.47984" lon="2.43451">
        <ele>2399</ele>
        <time>2022-07-06T15:13:58Z</time>
      </trkpt>
      <trkpt lat="42.47985" lon="2.43448">
        <ele>2399</ele>
        <time>2022-07-06T15:14:02Z</time>
      </trkpt>
      <trkpt lat="42.47995" lon="2.43448">
        <ele>2403</ele>
        <time>2022-07-06T15:14:15Z</time>
      </trkpt>
      <trkpt lat="42.47998" lon="2.43458">
        <ele>2406</ele>
        <time>2022-07-06T15:14:26Z</time>
      </trkpt>
      <trkpt lat="42.48007" lon="2.43456">
        <ele>2407</ele>
        <time>2022-07-06T15:14:38Z</time>
      </trkpt>
      <trkpt lat="42.48015" lon="2.43462">
        <ele>2410</ele>
        <time>2022-07-06T15:14:50Z</time>
      </trkpt>
      <trkpt lat="42.48021" lon="2.43471">
        <ele>2413</ele>
        <time>2022-07-06T15:15:02Z</time>
      </trkpt>
      <trkpt lat="42.48028" lon="2.43472">
        <ele>2414</ele>
        <time>2022-07-06T15:15:11Z</time>
      </trkpt>
      <trkpt lat="42.48035" lon="2.43484">
        <ele>2419</ele>
        <time>2022-07-06T15:15:26Z</time>
      </trkpt>
      <trkpt lat="42.48046" lon="2.43496">
        <ele>2424</ele>
        <time>2022-07-06T15:15:45Z</time>
      </trkpt>
      <trkpt lat="42.48063" lon="2.43508">
        <ele>2431</ele>
        <time>2022-07-06T15:16:11Z</time>
      </trkpt>
      <trkpt lat="42.48082" lon="2.43531">
        <ele>2438</ele>
        <time>2022-07-06T15:16:45Z</time>
      </trkpt>
      <trkpt lat="42.48099" lon="2.43541">
        <ele>2443</ele>
        <time>2022-07-06T15:17:09Z</time>
      </trkpt>
      <trkpt lat="42.48114" lon="2.4356">
        <ele>2450</ele>
        <time>2022-07-06T15:17:37Z</time>
      </trkpt>
      <trkpt lat="42.4812" lon="2.43563">
        <ele>2452</ele>
        <time>2022-07-06T15:17:45Z</time>
      </trkpt>
      <trkpt lat="42.48133" lon="2.43577">
        <ele>2458</ele>
        <time>2022-07-06T15:18:08Z</time>
      </trkpt>
      <trkpt lat="42.48146" lon="2.43595">
        <ele>2465</ele>
        <time>2022-07-06T15:18:32Z</time>
      </trkpt>
      <trkpt lat="42.48149" lon="2.436">
        <ele>2467</ele>
        <time>2022-07-06T15:18:39Z</time>
      </trkpt>
      <trkpt lat="42.4815" lon="2.43618">
        <ele>2470</ele>
        <time>2022-07-06T15:18:56Z</time>
      </trkpt>
      <trkpt lat="42.48163" lon="2.43625">
        <ele>2476</ele>
        <time>2022-07-06T15:19:15Z</time>
      </trkpt>
      <trkpt lat="42.48173" lon="2.43634">
        <ele>2481</ele>
        <time>2022-07-06T15:19:31Z</time>
      </trkpt>
      <trkpt lat="42.48178" lon="2.43649">
        <ele>2485</ele>
        <time>2022-07-06T15:19:47Z</time>
      </trkpt>
      <trkpt lat="42.48182" lon="2.43652">
        <ele>2487</ele>
        <time>2022-07-06T15:19:53Z</time>
      </trkpt>
      <trkpt lat="42.48182" lon="2.43676">
        <ele>2492</ele>
        <time>2022-07-06T15:20:17Z</time>
      </trkpt>
      <trkpt lat="42.48187" lon="2.43697">
        <ele>2497</ele>
        <time>2022-07-06T15:20:39Z</time>
      </trkpt>
      <trkpt lat="42.48192" lon="2.43701">
        <ele>2499</ele>
        <time>2022-07-06T15:20:46Z</time>
      </trkpt>
      <trkpt lat="42.48213" lon="2.43699">
        <ele>2505</ele>
        <time>2022-07-06T15:21:15Z</time>
      </trkpt>
      <trkpt lat="42.48219" lon="2.43707">
        <ele>2509</ele>
        <time>2022-07-06T15:21:26Z</time>
      </trkpt>
      <trkpt lat="42.48234" lon="2.43707">
        <ele>2514</ele>
        <time>2022-07-06T15:21:46Z</time>
      </trkpt>
      <trkpt lat="42.48241" lon="2.43723">
        <ele>2520</ele>
        <time>2022-07-06T15:22:04Z</time>
      </trkpt>
      <trkpt lat="42.48253" lon="2.43731">
        <ele>2525</ele>
        <time>2022-07-06T15:22:22Z</time>
      </trkpt>
      <trkpt lat="42.48257" lon="2.43737">
        <ele>2528</ele>
        <time>2022-07-06T15:22:30Z</time>
      </trkpt>
      <trkpt lat="42.48259" lon="2.43748">
        <ele>2531</ele>
        <time>2022-07-06T15:22:41Z</time>
      </trkpt>
      <trkpt lat="42.48271" lon="2.43761">
        <ele>2536</ele>
        <time>2022-07-06T15:23:02Z</time>
      </trkpt>
      <trkpt lat="42.48278" lon="2.43761">
        <ele>2538</ele>
        <time>2022-07-06T15:23:11Z</time>
      </trkpt>
      <trkpt lat="42.48283" lon="2.43765">
        <ele>2541</ele>
        <time>2022-07-06T15:23:19Z</time>
      </trkpt>
      <trkpt lat="42.48292" lon="2.43785">
        <ele>2548</ele>
        <time>2022-07-06T15:23:42Z</time>
      </trkpt>
      <trkpt lat="42.48293" lon="2.43805">
        <ele>2553</ele>
        <time>2022-07-06T15:24:01Z</time>
      </trkpt>
      <trkpt lat="42.48302" lon="2.43814">
        <ele>2558</ele>
        <time>2022-07-06T15:24:16Z</time>
      </trkpt>
      <trkpt lat="42.48304" lon="2.4382">
        <ele>2560</ele>
        <time>2022-07-06T15:24:23Z</time>
      </trkpt>
      <trkpt lat="42.48303" lon="2.43827">
        <ele>2561</ele>
        <time>2022-07-06T15:24:30Z</time>
      </trkpt>
      <trkpt lat="42.48307" lon="2.4383">
        <ele>2564</ele>
        <time>2022-07-06T15:24:36Z</time>
      </trkpt>
      <trkpt lat="42.48314" lon="2.43849">
        <ele>2570</ele>
        <time>2022-07-06T15:24:57Z</time>
      </trkpt>
      <trkpt lat="42.48319" lon="2.43851">
        <ele>2572</ele>
        <time>2022-07-06T15:25:04Z</time>
      </trkpt>
      <trkpt lat="42.48328" lon="2.43865">
        <ele>2578</ele>
        <time>2022-07-06T15:25:22Z</time>
      </trkpt>
      <trkpt lat="42.48334" lon="2.43871">
        <ele>2582</ele>
        <time>2022-07-06T15:25:32Z</time>
      </trkpt>
      <trkpt lat="42.48348" lon="2.43868">
        <ele>2586</ele>
        <time>2022-07-06T15:25:51Z</time>
      </trkpt>
      <trkpt lat="42.48358" lon="2.43853">
        <ele>2586</ele>
        <time>2022-07-06T15:26:11Z</time>
      </trkpt>
      <trkpt lat="42.48376" lon="2.43849">
        <ele>2591</ele>
        <time>2022-07-06T15:26:35Z</time>
      </trkpt>
      <trkpt lat="42.4838" lon="2.43853">
        <ele>2593</ele>
        <time>2022-07-06T15:26:42Z</time>
      </trkpt>
      <trkpt lat="42.4839" lon="2.43854">
        <ele>2597</ele>
        <time>2022-07-06T15:26:55Z</time>
      </trkpt>
      <trkpt lat="42.48388" lon="2.43863">
        <ele>2598</ele>
        <time>2022-07-06T15:27:04Z</time>
      </trkpt>
      <trkpt lat="42.4839" lon="2.43874">
        <ele>2601</ele>
        <time>2022-07-06T15:27:16Z</time>
      </trkpt>
      <trkpt lat="42.48402" lon="2.43876">
        <ele>2606</ele>
        <time>2022-07-06T15:27:32Z</time>
      </trkpt>
      <trkpt lat="42.48403" lon="2.43889">
        <ele>2609</ele>
        <time>2022-07-06T15:27:45Z</time>
      </trkpt>
      <trkpt lat="42.48409" lon="2.43901">
        <ele>2614</ele>
        <time>2022-07-06T15:27:59Z</time>
      </trkpt>
      <trkpt lat="42.48415" lon="2.43907">
        <ele>2618</ele>
        <time>2022-07-06T15:28:09Z</time>
      </trkpt>
      <trkpt lat="42.48421" lon="2.43911">
        <ele>2620</ele>
        <time>2022-07-06T15:28:18Z</time>
      </trkpt>
      <trkpt lat="42.48427" lon="2.43909">
        <ele>2621</ele>
        <time>2022-07-06T15:28:26Z</time>
      </trkpt>
      <trkpt lat="42.48438" lon="2.43912">
        <ele>2624</ele>
        <time>2022-07-06T15:28:41Z</time>
      </trkpt>
      <trkpt lat="42.4845" lon="2.43907">
        <ele>2626</ele>
        <time>2022-07-06T15:28:58Z</time>
      </trkpt>
      <trkpt lat="42.48456" lon="2.43908">
        <ele>2627</ele>
        <time>2022-07-06T15:29:06Z</time>
      </trkpt>
      <trkpt lat="42.4846" lon="2.43913">
        <ele>2629</ele>
        <time>2022-07-06T15:29:13Z</time>
      </trkpt>
      <trkpt lat="42.48473" lon="2.43921">
        <ele>2632</ele>
        <time>2022-07-06T15:29:32Z</time>
      </trkpt>
      <trkpt lat="42.48478" lon="2.43928">
        <ele>2633</ele>
        <time>2022-07-06T15:29:42Z</time>
      </trkpt>
      <trkpt lat="42.48479" lon="2.43949">
        <ele>2634</ele>
        <time>2022-07-06T15:30:02Z</time>
      </trkpt>
      <trkpt lat="42.48477" lon="2.4396">
        <ele>2634</ele>
        <time>2022-07-06T15:30:14Z</time>
      </trkpt>
      <trkpt lat="42.48472" lon="2.43969">
        <ele>2633</ele>
        <time>2022-07-06T15:30:25Z</time>
      </trkpt>
      <trkpt lat="42.48466" lon="2.43974">
        <ele>2633</ele>
        <time>2022-07-06T15:30:34Z</time>
      </trkpt>
      <trkpt lat="42.48464" lon="2.43973">
        <ele>2632</ele>
        <time>2022-07-06T15:30:37Z</time>
      </trkpt>
      <trkpt lat="42.48465" lon="2.43971">
        <ele>2632</ele>
        <time>2022-07-06T15:30:39Z</time>
      </trkpt>
      <trkpt lat="42.48466" lon="2.43973">
        <ele>2633</ele>
        <time>2022-07-06T15:30:42Z</time>
      </trkpt>
      <trkpt lat="42.48464" lon="2.43973">
        <ele>2632</ele>
        <time>2022-07-06T15:30:44Z</time>
      </trkpt>
      <trkpt lat="42.48467" lon="2.43973">
        <ele>2633</ele>
        <time>2022-07-06T15:30:48Z</time>
      </trkpt>
      <trkpt lat="42.48464" lon="2.43973">
        <ele>2632</ele>
        <time>2022-07-06T15:30:52Z</time>
      </trkpt>
      <trkpt lat="42.48467" lon="2.4397">
        <ele>2633</ele>
        <time>2022-07-06T15:30:57Z</time>
      </trkpt>
      <trkpt lat="42.48474" lon="2.4397">
        <ele>2634</ele>
        <time>2022-07-06T15:31:07Z</time>
      </trkpt>
      <trkpt lat="42.4848" lon="2.4395">
        <ele>2634</ele>
        <time>2022-07-06T15:31:28Z</time>
      </trkpt>
      <trkpt lat="42.48476" lon="2.43918">
        <ele>2632</ele>
        <time>2022-07-06T15:32:00Z</time>
      </trkpt>
      <trkpt lat="42.48456" lon="2.43911">
        <ele>2628</ele>
        <time>2022-07-06T15:32:27Z</time>
      </trkpt>
      <trkpt lat="42.48452" lon="2.43905">
        <ele>2626</ele>
        <time>2022-07-06T15:32:35Z</time>
      </trkpt>
      <trkpt lat="42.48432" lon="2.43898">
        <ele>2620</ele>
        <time>2022-07-06T15:33:03Z</time>
      </trkpt>
      <trkpt lat="42.48423" lon="2.43904">
        <ele>2619</ele>
        <time>2022-07-06T15:33:16Z</time>
      </trkpt>
      <trkpt lat="42.48413" lon="2.43902">
        <ele>2616</ele>
        <time>2022-07-06T15:33:30Z</time>
      </trkpt>
      <trkpt lat="42.48401" lon="2.43887">
        <ele>2608</ele>
        <time>2022-07-06T15:33:52Z</time>
      </trkpt>
      <trkpt lat="42.48399" lon="2.43877">
        <ele>2605</ele>
        <time>2022-07-06T15:34:02Z</time>
      </trkpt>
      <trkpt lat="42.4839" lon="2.43876">
        <ele>2602</ele>
        <time>2022-07-06T15:34:14Z</time>
      </trkpt>
      <trkpt lat="42.48388" lon="2.43854">
        <ele>2596</ele>
        <time>2022-07-06T15:34:36Z</time>
      </trkpt>
      <trkpt lat="42.48383" lon="2.43849">
        <ele>2593</ele>
        <time>2022-07-06T15:34:44Z</time>
      </trkpt>
      <trkpt lat="42.48376" lon="2.43852">
        <ele>2592</ele>
        <time>2022-07-06T15:34:54Z</time>
      </trkpt>
      <trkpt lat="42.48369" lon="2.43849">
        <ele>2589</ele>
        <time>2022-07-06T15:35:04Z</time>
      </trkpt>
      <trkpt lat="42.48363" lon="2.43841">
        <ele>2585</ele>
        <time>2022-07-06T15:35:15Z</time>
      </trkpt>
      <trkpt lat="42.4835" lon="2.43834">
        <ele>2580</ele>
        <time>2022-07-06T15:35:33Z</time>
      </trkpt>
      <trkpt lat="42.48346" lon="2.43826">
        <ele>2577</ele>
        <time>2022-07-06T15:35:43Z</time>
      </trkpt>
      <trkpt lat="42.48339" lon="2.43823">
        <ele>2574</ele>
        <time>2022-07-06T15:35:53Z</time>
      </trkpt>
      <trkpt lat="42.48313" lon="2.43826">
        <ele>2565</ele>
        <time>2022-07-06T15:36:28Z</time>
      </trkpt>
      <trkpt lat="42.48303" lon="2.43825">
        <ele>2561</ele>
        <time>2022-07-06T15:36:41Z</time>
      </trkpt>
      <trkpt lat="42.48299" lon="2.4381">
        <ele>2556</ele>
        <time>2022-07-06T15:36:57Z</time>
      </trkpt>
      <trkpt lat="42.48291" lon="2.43806">
        <ele>2552</ele>
        <time>2022-07-06T15:37:08Z</time>
      </trkpt>
      <trkpt lat="42.48292" lon="2.43789">
        <ele>2548</ele>
        <time>2022-07-06T15:37:25Z</time>
      </trkpt>
      <trkpt lat="42.4829" lon="2.43784">
        <ele>2547</ele>
        <time>2022-07-06T15:37:30Z</time>
      </trkpt>
      <trkpt lat="42.48275" lon="2.4376">
        <ele>2537</ele>
        <time>2022-07-06T15:38:01Z</time>
      </trkpt>
      <trkpt lat="42.48266" lon="2.43761">
        <ele>2535</ele>
        <time>2022-07-06T15:38:13Z</time>
      </trkpt>
      <trkpt lat="42.48263" lon="2.43753">
        <ele>2533</ele>
        <time>2022-07-06T15:38:22Z</time>
      </trkpt>
      <trkpt lat="42.48256" lon="2.43747">
        <ele>2530</ele>
        <time>2022-07-06T15:38:33Z</time>
      </trkpt>
      <trkpt lat="42.48251" lon="2.43731">
        <ele>2525</ele>
        <time>2022-07-06T15:38:50Z</time>
      </trkpt>
      <trkpt lat="42.48227" lon="2.43713">
        <ele>2513</ele>
        <time>2022-07-06T15:39:27Z</time>
      </trkpt>
      <trkpt lat="42.48222" lon="2.43706">
        <ele>2510</ele>
        <time>2022-07-06T15:39:37Z</time>
      </trkpt>
      <trkpt lat="42.48214" lon="2.43686">
        <ele>2503</ele>
        <time>2022-07-06T15:39:59Z</time>
      </trkpt>
      <trkpt lat="42.48207" lon="2.4368">
        <ele>2500</ele>
        <time>2022-07-06T15:40:10Z</time>
      </trkpt>
      <trkpt lat="42.48188" lon="2.43673">
        <ele>2493</ele>
        <time>2022-07-06T15:40:36Z</time>
      </trkpt>
      <trkpt lat="42.48178" lon="2.43664">
        <ele>2489</ele>
        <time>2022-07-06T15:40:52Z</time>
      </trkpt>
      <trkpt lat="42.48179" lon="2.43651">
        <ele>2486</ele>
        <time>2022-07-06T15:41:05Z</time>
      </trkpt>
      <trkpt lat="42.48173" lon="2.43633">
        <ele>2481</ele>
        <time>2022-07-06T15:41:25Z</time>
      </trkpt>
      <trkpt lat="42.48159" lon="2.43621">
        <ele>2474</ele>
        <time>2022-07-06T15:41:47Z</time>
      </trkpt>
      <trkpt lat="42.48151" lon="2.43622">
        <ele>2471</ele>
        <time>2022-07-06T15:41:57Z</time>
      </trkpt>
      <trkpt lat="42.48147" lon="2.43603">
        <ele>2467</ele>
        <time>2022-07-06T15:42:17Z</time>
      </trkpt>
      <trkpt lat="42.48129" lon="2.43575">
        <ele>2456</ele>
        <time>2022-07-06T15:42:53Z</time>
      </trkpt>
      <trkpt lat="42.48121" lon="2.43569">
        <ele>2453</ele>
        <time>2022-07-06T15:43:06Z</time>
      </trkpt>
      <trkpt lat="42.48095" lon="2.4354">
        <ele>2442</ele>
        <time>2022-07-06T15:43:51Z</time>
      </trkpt>
      <trkpt lat="42.48086" lon="2.43532">
        <ele>2439</ele>
        <time>2022-07-06T15:44:05Z</time>
      </trkpt>
      <trkpt lat="42.48082" lon="2.43532">
        <ele>2438</ele>
        <time>2022-07-06T15:44:10Z</time>
      </trkpt>
      <trkpt lat="42.48064" lon="2.43512">
        <ele>2431</ele>
        <time>2022-07-06T15:44:41Z</time>
      </trkpt>
      <trkpt lat="42.4804" lon="2.43494">
        <ele>2422</ele>
        <time>2022-07-06T15:45:18Z</time>
      </trkpt>
      <trkpt lat="42.48029" lon="2.43478">
        <ele>2416</ele>
        <time>2022-07-06T15:45:39Z</time>
      </trkpt>
      <trkpt lat="42.48027" lon="2.43471">
        <ele>2414</ele>
        <time>2022-07-06T15:45:47Z</time>
      </trkpt>
      <trkpt lat="42.48027" lon="2.43473">
        <ele>2414</ele>
        <time>2022-07-06T15:45:49Z</time>
      </trkpt>
      <trkpt lat="42.48029" lon="2.43472">
        <ele>2415</ele>
        <time>2022-07-06T15:45:52Z</time>
      </trkpt>
      <trkpt lat="42.48019" lon="2.43468">
        <ele>2412</ele>
        <time>2022-07-06T15:46:06Z</time>
      </trkpt>
      <trkpt lat="42.48006" lon="2.43455">
        <ele>2407</ele>
        <time>2022-07-06T15:46:27Z</time>
      </trkpt>
      <trkpt lat="42.47998" lon="2.43454">
        <ele>2405</ele>
        <time>2022-07-06T15:46:38Z</time>
      </trkpt>
      <trkpt lat="42.47994" lon="2.43457">
        <ele>2404</ele>
        <time>2022-07-06T15:46:44Z</time>
      </trkpt>
      <trkpt lat="42.4799" lon="2.43446">
        <ele>2400</ele>
        <time>2022-07-06T15:46:56Z</time>
      </trkpt>
      <trkpt lat="42.47974" lon="2.43443">
        <ele>2394</ele>
        <time>2022-07-06T15:47:18Z</time>
      </trkpt>
      <trkpt lat="42.47971" lon="2.43439">
        <ele>2392</ele>
        <time>2022-07-06T15:47:23Z</time>
      </trkpt>
      <trkpt lat="42.47961" lon="2.43435">
        <ele>2388</ele>
        <time>2022-07-06T15:47:37Z</time>
      </trkpt>
      <trkpt lat="42.47959" lon="2.43419">
        <ele>2385</ele>
        <time>2022-07-06T15:47:53Z</time>
      </trkpt>
      <trkpt lat="42.47964" lon="2.43408">
        <ele>2384</ele>
        <time>2022-07-06T15:48:06Z</time>
      </trkpt>
      <trkpt lat="42.4796" lon="2.4339">
        <ele>2378</ele>
        <time>2022-07-06T15:48:24Z</time>
      </trkpt>
      <trkpt lat="42.47965" lon="2.4338">
        <ele>2377</ele>
        <time>2022-07-06T15:48:36Z</time>
      </trkpt>
      <trkpt lat="42.47952" lon="2.43381">
        <ele>2373</ele>
        <time>2022-07-06T15:48:54Z</time>
      </trkpt>
      <trkpt lat="42.47939" lon="2.43374">
        <ele>2368</ele>
        <time>2022-07-06T15:49:12Z</time>
      </trkpt>
      <trkpt lat="42.47935" lon="2.43369">
        <ele>2365</ele>
        <time>2022-07-06T15:49:19Z</time>
      </trkpt>
      <trkpt lat="42.47933" lon="2.43365">
        <ele>2364</ele>
        <time>2022-07-06T15:49:24Z</time>
      </trkpt>
      <trkpt lat="42.47934" lon="2.43351">
        <ele>2361</ele>
        <time>2022-07-06T15:49:38Z</time>
      </trkpt>
      <trkpt lat="42.47932" lon="2.43341">
        <ele>2358</ele>
        <time>2022-07-06T15:49:48Z</time>
      </trkpt>
      <trkpt lat="42.47923" lon="2.43334">
        <ele>2354</ele>
        <time>2022-07-06T15:50:02Z</time>
      </trkpt>
      <trkpt lat="42.47922" lon="2.43327">
        <ele>2351</ele>
        <time>2022-07-06T15:50:09Z</time>
      </trkpt>
      <trkpt lat="42.47916" lon="2.43318">
        <ele>2347</ele>
        <time>2022-07-06T15:50:21Z</time>
      </trkpt>
      <trkpt lat="42.47909" lon="2.43318">
        <ele>2344</ele>
        <time>2022-07-06T15:50:30Z</time>
      </trkpt>
      <trkpt lat="42.47903" lon="2.43298">
        <ele>2336</ele>
        <time>2022-07-06T15:50:52Z</time>
      </trkpt>
      <trkpt lat="42.47892" lon="2.43285">
        <ele>2329</ele>
        <time>2022-07-06T15:51:11Z</time>
      </trkpt>
      <trkpt lat="42.47894" lon="2.43272">
        <ele>2326</ele>
        <time>2022-07-06T15:51:24Z</time>
      </trkpt>
      <trkpt lat="42.47884" lon="2.43261">
        <ele>2320</ele>
        <time>2022-07-06T15:51:41Z</time>
      </trkpt>
      <trkpt lat="42.4788" lon="2.4325">
        <ele>2316</ele>
        <time>2022-07-06T15:51:53Z</time>
      </trkpt>
      <trkpt lat="42.47881" lon="2.43231">
        <ele>2312</ele>
        <time>2022-07-06T15:52:12Z</time>
      </trkpt>
      <trkpt lat="42.47875" lon="2.43221">
        <ele>2308</ele>
        <time>2022-07-06T15:52:25Z</time>
      </trkpt>
      <trkpt lat="42.47875" lon="2.43198">
        <ele>2303</ele>
        <time>2022-07-06T15:52:48Z</time>
      </trkpt>
      <trkpt lat="42.47858" lon="2.43192">
        <ele>2298</ele>
        <time>2022-07-06T15:53:11Z</time>
      </trkpt>
      <trkpt lat="42.47841" lon="2.43164">
        <ele>2290</ele>
        <time>2022-07-06T15:53:47Z</time>
      </trkpt>
      <trkpt lat="42.47832" lon="2.43161">
        <ele>2288</ele>
        <time>2022-07-06T15:53:59Z</time>
      </trkpt>
      <trkpt lat="42.47826" lon="2.43144">
        <ele>2285</ele>
        <time>2022-07-06T15:54:18Z</time>
      </trkpt>
      <trkpt lat="42.47814" lon="2.43133">
        <ele>2282</ele>
        <time>2022-07-06T15:54:37Z</time>
      </trkpt>
      <trkpt lat="42.47758" lon="2.43051">
        <ele>2279</ele>
        <time>2022-07-06T15:56:27Z</time>
      </trkpt>
      <trkpt lat="42.47741" lon="2.43006">
        <ele>2286</ele>
        <time>2022-07-06T15:57:17Z</time>
      </trkpt>
      <trkpt lat="42.4772" lon="2.4298">
        <ele>2287</ele>
        <time>2022-07-06T15:57:55Z</time>
      </trkpt>
      <trkpt lat="42.47709" lon="2.42954">
        <ele>2290</ele>
        <time>2022-07-06T15:58:24Z</time>
      </trkpt>
      <trkpt lat="42.47686" lon="2.4292">
        <ele>2295</ele>
        <time>2022-07-06T15:59:10Z</time>
      </trkpt>
      <trkpt lat="42.47675" lon="2.42896">
        <ele>2295</ele>
        <time>2022-07-06T15:59:37Z</time>
      </trkpt>
      <trkpt lat="42.47637" lon="2.42849">
        <ele>2295</ele>
        <time>2022-07-06T16:00:46Z</time>
      </trkpt>
      <trkpt lat="42.47626" lon="2.42829">
        <ele>2294</ele>
        <time>2022-07-06T16:01:11Z</time>
      </trkpt>
      <trkpt lat="42.47591" lon="2.42783">
        <ele>2289</ele>
        <time>2022-07-06T16:02:16Z</time>
      </trkpt>
      <trkpt lat="42.47557" lon="2.42726">
        <ele>2283</ele>
        <time>2022-07-06T16:03:28Z</time>
      </trkpt>
      <trkpt lat="42.47525" lon="2.42689">
        <ele>2281</ele>
        <time>2022-07-06T16:04:24Z</time>
      </trkpt>
      <trkpt lat="42.47516" lon="2.42602">
        <ele>2274</ele>
        <time>2022-07-06T16:05:50Z</time>
      </trkpt>
      <trkpt lat="42.47505" lon="2.42543">
        <ele>2271</ele>
        <time>2022-07-06T16:06:50Z</time>
      </trkpt>
      <trkpt lat="42.47498" lon="2.42535">
        <ele>2272</ele>
        <time>2022-07-06T16:07:02Z</time>
      </trkpt>
      <trkpt lat="42.47496" lon="2.42524">
        <ele>2272</ele>
        <time>2022-07-06T16:07:14Z</time>
      </trkpt>
      <trkpt lat="42.47504" lon="2.42494">
        <ele>2269</ele>
        <time>2022-07-06T16:07:45Z</time>
      </trkpt>
      <trkpt lat="42.47525" lon="2.42472">
        <ele>2263</ele>
        <time>2022-07-06T16:08:20Z</time>
      </trkpt>
      <trkpt lat="42.47523" lon="2.42454">
        <ele>2264</ele>
        <time>2022-07-06T16:08:38Z</time>
      </trkpt>
      <trkpt lat="42.47511" lon="2.42423">
        <ele>2267</ele>
        <time>2022-07-06T16:09:13Z</time>
      </trkpt>
      <trkpt lat="42.47516" lon="2.42391">
        <ele>2266</ele>
        <time>2022-07-06T16:09:45Z</time>
      </trkpt>
      <trkpt lat="42.47514" lon="2.42385">
        <ele>2267</ele>
        <time>2022-07-06T16:09:51Z</time>
      </trkpt>
      <trkpt lat="42.4752" lon="2.42337">
        <ele>2267</ele>
        <time>2022-07-06T16:10:39Z</time>
      </trkpt>
      <trkpt lat="42.47518" lon="2.42309">
        <ele>2267</ele>
        <time>2022-07-06T16:11:07Z</time>
      </trkpt>
      <trkpt lat="42.47523" lon="2.42286">
        <ele>2266</ele>
        <time>2022-07-06T16:11:31Z</time>
      </trkpt>
      <trkpt lat="42.47545" lon="2.42251">
        <ele>2262</ele>
        <time>2022-07-06T16:12:16Z</time>
      </trkpt>
      <trkpt lat="42.47556" lon="2.42243">
        <ele>2259</ele>
        <time>2022-07-06T16:12:33Z</time>
      </trkpt>
      <trkpt lat="42.47554" lon="2.42241">
        <ele>2260</ele>
        <time>2022-07-06T16:12:36Z</time>
      </trkpt>
      <trkpt lat="42.47558" lon="2.42245">
        <ele>2259</ele>
        <time>2022-07-06T16:12:43Z</time>
      </trkpt>
      <trkpt lat="42.4756" lon="2.42238">
        <ele>2258</ele>
        <time>2022-07-06T16:12:50Z</time>
      </trkpt>
      <trkpt lat="42.47565" lon="2.42235">
        <ele>2257</ele>
        <time>2022-07-06T16:12:57Z</time>
      </trkpt>
      <trkpt lat="42.4757" lon="2.42238">
        <ele>2256</ele>
        <time>2022-07-06T16:13:05Z</time>
      </trkpt>
      <trkpt lat="42.47577" lon="2.42225">
        <ele>2254</ele>
        <time>2022-07-06T16:13:20Z</time>
      </trkpt>
      <trkpt lat="42.4759" lon="2.42221">
        <ele>2250</ele>
        <time>2022-07-06T16:13:38Z</time>
      </trkpt>
      <trkpt lat="42.47595" lon="2.42217">
        <ele>2248</ele>
        <time>2022-07-06T16:13:46Z</time>
      </trkpt>
      <trkpt lat="42.47596" lon="2.42212">
        <ele>2247</ele>
        <time>2022-07-06T16:13:51Z</time>
      </trkpt>
      <trkpt lat="42.47599" lon="2.42213">
        <ele>2246</ele>
        <time>2022-07-06T16:13:55Z</time>
      </trkpt>
      <trkpt lat="42.47602" lon="2.4221">
        <ele>2244</ele>
        <time>2022-07-06T16:14:00Z</time>
      </trkpt>
      <trkpt lat="42.47605" lon="2.42203">
        <ele>2243</ele>
        <time>2022-07-06T16:14:08Z</time>
      </trkpt>
      <trkpt lat="42.47608" lon="2.42174">
        <ele>2241</ele>
        <time>2022-07-06T16:14:37Z</time>
      </trkpt>
      <trkpt lat="42.47606" lon="2.42151">
        <ele>2240</ele>
        <time>2022-07-06T16:15:00Z</time>
      </trkpt>
      <trkpt lat="42.47607" lon="2.4212">
        <ele>2237</ele>
        <time>2022-07-06T16:15:30Z</time>
      </trkpt>
      <trkpt lat="42.47602" lon="2.42078">
        <ele>2235</ele>
        <time>2022-07-06T16:16:12Z</time>
      </trkpt>
      <trkpt lat="42.47606" lon="2.42079">
        <ele>2234</ele>
        <time>2022-07-06T16:16:18Z</time>
      </trkpt>
      <trkpt lat="42.47603" lon="2.42079">
        <ele>2235</ele>
        <time>2022-07-06T16:16:22Z</time>
      </trkpt>
      <trkpt lat="42.47603" lon="2.42082">
        <ele>2235</ele>
        <time>2022-07-06T16:16:24Z</time>
      </trkpt>
      <trkpt lat="42.47606" lon="2.42079">
        <ele>2234</ele>
        <time>2022-07-06T16:16:29Z</time>
      </trkpt>
      <trkpt lat="42.47604" lon="2.42081">
        <ele>2235</ele>
        <time>2022-07-06T16:16:33Z</time>
      </trkpt>
      <trkpt lat="42.47602" lon="2.42079">
        <ele>2235</ele>
        <time>2022-07-06T16:16:36Z</time>
      </trkpt>
      <trkpt lat="42.47593" lon="2.41985">
        <ele>2231</ele>
        <time>2022-07-06T16:18:09Z</time>
      </trkpt>
      <trkpt lat="42.4759" lon="2.41973">
        <ele>2232</ele>
        <time>2022-07-06T16:18:22Z</time>
      </trkpt>
      <trkpt lat="42.47602" lon="2.41932">
        <ele>2224</ele>
        <time>2022-07-06T16:19:05Z</time>
      </trkpt>
      <trkpt lat="42.476" lon="2.41911">
        <ele>2224</ele>
        <time>2022-07-06T16:19:26Z</time>
      </trkpt>
      <trkpt lat="42.47595" lon="2.41892">
        <ele>2225</ele>
        <time>2022-07-06T16:19:46Z</time>
      </trkpt>
      <trkpt lat="42.47603" lon="2.41841">
        <ele>2220</ele>
        <time>2022-07-06T16:20:37Z</time>
      </trkpt>
      <trkpt lat="42.47612" lon="2.41812">
        <ele>2216</ele>
        <time>2022-07-06T16:21:08Z</time>
      </trkpt>
      <trkpt lat="42.47625" lon="2.41786">
        <ele>2211</ele>
        <time>2022-07-06T16:21:39Z</time>
      </trkpt>
      <trkpt lat="42.47628" lon="2.41771">
        <ele>2211</ele>
        <time>2022-07-06T16:21:54Z</time>
      </trkpt>
      <trkpt lat="42.47652" lon="2.41742">
        <ele>2203</ele>
        <time>2022-07-06T16:22:37Z</time>
      </trkpt>
      <trkpt lat="42.47653" lon="2.41734">
        <ele>2204</ele>
        <time>2022-07-06T16:22:45Z</time>
      </trkpt>
      <trkpt lat="42.4765" lon="2.41717">
        <ele>2207</ele>
        <time>2022-07-06T16:23:03Z</time>
      </trkpt>
      <trkpt lat="42.47643" lon="2.41698">
        <ele>2211</ele>
        <time>2022-07-06T16:23:23Z</time>
      </trkpt>
      <trkpt lat="42.47644" lon="2.4168">
        <ele>2212</ele>
        <time>2022-07-06T16:23:41Z</time>
      </trkpt>
      <trkpt lat="42.47653" lon="2.41678">
        <ele>2210</ele>
        <time>2022-07-06T16:23:53Z</time>
      </trkpt>
      <trkpt lat="42.47665" lon="2.41681">
        <ele>2206</ele>
        <time>2022-07-06T16:24:10Z</time>
      </trkpt>
      <trkpt lat="42.47713" lon="2.41658">
        <ele>2189</ele>
        <time>2022-07-06T16:25:18Z</time>
      </trkpt>
      <trkpt lat="42.47731" lon="2.41633">
        <ele>2187</ele>
        <time>2022-07-06T16:25:52Z</time>
      </trkpt>
      <trkpt lat="42.47785" lon="2.41538">
        <ele>2182</ele>
        <time>2022-07-06T16:27:50Z</time>
      </trkpt>
      <trkpt lat="42.47787" lon="2.41528">
        <ele>2183</ele>
        <time>2022-07-06T16:28:00Z</time>
      </trkpt>
      <trkpt lat="42.47823" lon="2.41441">
        <ele>2175</ele>
        <time>2022-07-06T16:29:38Z</time>
      </trkpt>
      <trkpt lat="42.47845" lon="2.41369">
        <ele>2170</ele>
        <time>2022-07-06T16:30:55Z</time>
      </trkpt>
      <trkpt lat="42.47864" lon="2.41328">
        <ele>2166</ele>
        <time>2022-07-06T16:31:43Z</time>
      </trkpt>
      <trkpt lat="42.47918" lon="2.41251">
        <ele>2158</ele>
        <time>2022-07-06T16:33:27Z</time>
      </trkpt>
      <trkpt lat="42.47942" lon="2.41223">
        <ele>2154</ele>
        <time>2022-07-06T16:34:10Z</time>
      </trkpt>
      <trkpt lat="42.4802" lon="2.41142">
        <ele>2140</ele>
        <time>2022-07-06T16:36:21Z</time>
      </trkpt>
      <trkpt lat="42.48037" lon="2.41129">
        <ele>2137</ele>
        <time>2022-07-06T16:36:47Z</time>
      </trkpt>
      <trkpt lat="42.48068" lon="2.41083">
        <ele>2134</ele>
        <time>2022-07-06T16:37:48Z</time>
      </trkpt>
      <trkpt lat="42.48089" lon="2.41063">
        <ele>2129</ele>
        <time>2022-07-06T16:38:22Z</time>
      </trkpt>
      <trkpt lat="42.48154" lon="2.40968">
        <ele>2126</ele>
        <time>2022-07-06T16:40:30Z</time>
      </trkpt>
      <trkpt lat="42.48233" lon="2.40911">
        <ele>2110</ele>
        <time>2022-07-06T16:42:29Z</time>
      </trkpt>
      <trkpt lat="42.48251" lon="2.4089">
        <ele>2106</ele>
        <time>2022-07-06T16:43:01Z</time>
      </trkpt>
      <trkpt lat="42.48277" lon="2.40845">
        <ele>2099</ele>
        <time>2022-07-06T16:43:57Z</time>
      </trkpt>
      <trkpt lat="42.48293" lon="2.40803">
        <ele>2094</ele>
        <time>2022-07-06T16:44:44Z</time>
      </trkpt>
      <trkpt lat="42.48297" lon="2.40778">
        <ele>2093</ele>
        <time>2022-07-06T16:45:09Z</time>
      </trkpt>
      <trkpt lat="42.48303" lon="2.4076">
        <ele>2092</ele>
        <time>2022-07-06T16:45:28Z</time>
      </trkpt>
      <trkpt lat="42.48324" lon="2.40721">
        <ele>2083</ele>
        <time>2022-07-06T16:46:16Z</time>
      </trkpt>
      <trkpt lat="42.48329" lon="2.40719">
        <ele>2082</ele>
        <time>2022-07-06T16:46:23Z</time>
      </trkpt>
      <trkpt lat="42.48341" lon="2.4069">
        <ele>2079</ele>
        <time>2022-07-06T16:46:56Z</time>
      </trkpt>
      <trkpt lat="42.48345" lon="2.4067">
        <ele>2079</ele>
        <time>2022-07-06T16:47:16Z</time>
      </trkpt>
      <trkpt lat="42.48355" lon="2.40654">
        <ele>2078</ele>
        <time>2022-07-06T16:47:37Z</time>
      </trkpt>
      <trkpt lat="42.48353" lon="2.40654">
        <ele>2078</ele>
        <time>2022-07-06T16:47:39Z</time>
      </trkpt>
      <trkpt lat="42.48354" lon="2.40658">
        <ele>2078</ele>
        <time>2022-07-06T16:47:43Z</time>
      </trkpt>
      <trkpt lat="42.48352" lon="2.4066">
        <ele>2078</ele>
        <time>2022-07-06T16:47:47Z</time>
      </trkpt>
      <trkpt lat="42.48365" lon="2.40642">
        <ele>2077</ele>
        <time>2022-07-06T16:48:12Z</time>
      </trkpt>
      <trkpt lat="42.4839" lon="2.40617">
        <ele>2078</ele>
        <time>2022-07-06T16:48:53Z</time>
      </trkpt>
      <trkpt lat="42.48412" lon="2.40583">
        <ele>2083</ele>
        <time>2022-07-06T16:49:38Z</time>
      </trkpt>
      <trkpt lat="42.48412" lon="2.40574">
        <ele>2083</ele>
        <time>2022-07-06T16:49:46Z</time>
      </trkpt>
      <trkpt lat="42.48423" lon="2.40543">
        <ele>2084</ele>
        <time>2022-07-06T16:50:20Z</time>
      </trkpt>
      <trkpt lat="42.48474" lon="2.40455">
        <ele>2090</ele>
        <time>2022-07-06T16:52:10Z</time>
      </trkpt>
      <trkpt lat="42.48479" lon="2.4044">
        <ele>2090</ele>
        <time>2022-07-06T16:52:27Z</time>
      </trkpt>
      <trkpt lat="42.48499" lon="2.40402">
        <ele>2091</ele>
        <time>2022-07-06T16:53:13Z</time>
      </trkpt>
      <trkpt lat="42.48517" lon="2.40356">
        <ele>2085</ele>
        <time>2022-07-06T16:54:04Z</time>
      </trkpt>
      <trkpt lat="42.48549" lon="2.40305">
        <ele>2082</ele>
        <time>2022-07-06T16:55:10Z</time>
      </trkpt>
      <trkpt lat="42.48563" lon="2.40289">
        <ele>2082</ele>
        <time>2022-07-06T16:55:34Z</time>
      </trkpt>
      <trkpt lat="42.48577" lon="2.40275">
        <ele>2083</ele>
        <time>2022-07-06T16:55:57Z</time>
      </trkpt>
      <trkpt lat="42.48595" lon="2.40267">
        <ele>2081</ele>
        <time>2022-07-06T16:56:23Z</time>
      </trkpt>
      <trkpt lat="42.48617" lon="2.4027">
        <ele>2079</ele>
        <time>2022-07-06T16:56:52Z</time>
      </trkpt>
      <trkpt lat="42.48663" lon="2.40307">
        <ele>2077</ele>
        <time>2022-07-06T16:58:03Z</time>
      </trkpt>
      <trkpt lat="42.48673" lon="2.40325">
        <ele>2077</ele>
        <time>2022-07-06T16:58:26Z</time>
      </trkpt>
      <trkpt lat="42.48693" lon="2.40345">
        <ele>2075</ele>
        <time>2022-07-06T16:58:59Z</time>
      </trkpt>
      <trkpt lat="42.48725" lon="2.40349">
        <ele>2069</ele>
        <time>2022-07-06T16:59:42Z</time>
      </trkpt>
      <trkpt lat="42.48755" lon="2.40362">
        <ele>2066</ele>
        <time>2022-07-06T17:00:24Z</time>
      </trkpt>
      <trkpt lat="42.48819" lon="2.4038">
        <ele>2056</ele>
        <time>2022-07-06T17:01:51Z</time>
      </trkpt>
      <trkpt lat="42.48846" lon="2.40376">
        <ele>2048</ele>
        <time>2022-07-06T17:02:27Z</time>
      </trkpt>
      <trkpt lat="42.48896" lon="2.40407">
        <ele>2047</ele>
        <time>2022-07-06T17:03:41Z</time>
      </trkpt>
      <trkpt lat="42.48924" lon="2.40416">
        <ele>2044</ele>
        <time>2022-07-06T17:04:19Z</time>
      </trkpt>
      <trkpt lat="42.48975" lon="2.40423">
        <ele>2037</ele>
        <time>2022-07-06T17:05:27Z</time>
      </trkpt>
      <trkpt lat="42.48988" lon="2.40421">
        <ele>2034</ele>
        <time>2022-07-06T17:05:45Z</time>
      </trkpt>
      <trkpt lat="42.49022" lon="2.4041">
        <ele>2028</ele>
        <time>2022-07-06T17:06:31Z</time>
      </trkpt>
      <trkpt lat="42.49032" lon="2.40406">
        <ele>2027</ele>
        <time>2022-07-06T17:06:45Z</time>
      </trkpt>
      <trkpt lat="42.49032" lon="2.40404">
        <ele>2026</ele>
        <time>2022-07-06T17:06:47Z</time>
      </trkpt>
      <trkpt lat="42.49037" lon="2.40404">
        <ele>2026</ele>
        <time>2022-07-06T17:06:54Z</time>
      </trkpt>
      <trkpt lat="42.4905" lon="2.40394">
        <ele>2023</ele>
        <time>2022-07-06T17:07:14Z</time>
      </trkpt>
      <trkpt lat="42.49074" lon="2.40387">
        <ele>2021</ele>
        <time>2022-07-06T17:07:47Z</time>
      </trkpt>
      <trkpt lat="42.49112" lon="2.40348">
        <ele>2012</ele>
        <time>2022-07-06T17:08:50Z</time>
      </trkpt>
      <trkpt lat="42.49163" lon="2.40308">
        <ele>2008</ele>
        <time>2022-07-06T17:10:09Z</time>
      </trkpt>
      <trkpt lat="42.49191" lon="2.4028">
        <ele>2003</ele>
        <time>2022-07-06T17:10:55Z</time>
      </trkpt>
      <trkpt lat="42.49222" lon="2.40238">
        <ele>1998</ele>
        <time>2022-07-06T17:11:54Z</time>
      </trkpt>
      <trkpt lat="42.4925" lon="2.40208">
        <ele>1998</ele>
        <time>2022-07-06T17:12:41Z</time>
      </trkpt>
      <trkpt lat="42.49274" lon="2.40178">
        <ele>1993</ele>
        <time>2022-07-06T17:13:25Z</time>
      </trkpt>
      <trkpt lat="42.49309" lon="2.40127">
        <ele>1989</ele>
        <time>2022-07-06T17:14:34Z</time>
      </trkpt>
      <trkpt lat="42.49328" lon="2.40074">
        <ele>1986</ele>
        <time>2022-07-06T17:15:32Z</time>
      </trkpt>
      <trkpt lat="42.49337" lon="2.40059">
        <ele>1985</ele>
        <time>2022-07-06T17:15:51Z</time>
      </trkpt>
      <trkpt lat="42.49349" lon="2.40029">
        <ele>1981</ele>
        <time>2022-07-06T17:16:24Z</time>
      </trkpt>
      <trkpt lat="42.49361" lon="2.39992">
        <ele>1977</ele>
        <time>2022-07-06T17:17:04Z</time>
      </trkpt>
      <trkpt lat="42.49381" lon="2.39953">
        <ele>1974</ele>
        <time>2022-07-06T17:17:51Z</time>
      </trkpt>
      <trkpt lat="42.49394" lon="2.39921">
        <ele>1972</ele>
        <time>2022-07-06T17:18:27Z</time>
      </trkpt>
      <trkpt lat="42.49418" lon="2.39828">
        <ele>1956</ele>
        <time>2022-07-06T17:20:04Z</time>
      </trkpt>
      <trkpt lat="42.4943" lon="2.39795">
        <ele>1950</ele>
        <time>2022-07-06T17:20:40Z</time>
      </trkpt>
      <trkpt lat="42.49438" lon="2.39753">
        <ele>1943</ele>
        <time>2022-07-06T17:21:22Z</time>
      </trkpt>
      <trkpt lat="42.49433" lon="2.39663">
        <ele>1931</ele>
        <time>2022-07-06T17:22:51Z</time>
      </trkpt>
      <trkpt lat="42.49448" lon="2.39655">
        <ele>1929</ele>
        <time>2022-07-06T17:23:13Z</time>
      </trkpt>
      <trkpt lat="42.49452" lon="2.39647">
        <ele>1927</ele>
        <time>2022-07-06T17:23:22Z</time>
      </trkpt>
      <trkpt lat="42.4946" lon="2.39644">
        <ele>1926</ele>
        <time>2022-07-06T17:23:33Z</time>
      </trkpt>
      <trkpt lat="42.49467" lon="2.39633">
        <ele>1924</ele>
        <time>2022-07-06T17:23:48Z</time>
      </trkpt>
      <trkpt lat="42.49478" lon="2.39641">
        <ele>1925</ele>
        <time>2022-07-06T17:24:04Z</time>
      </trkpt>
      <trkpt lat="42.49488" lon="2.39642">
        <ele>1925</ele>
        <time>2022-07-06T17:24:18Z</time>
      </trkpt>
      <trkpt lat="42.4949" lon="2.39621">
        <ele>1921</ele>
        <time>2022-07-06T17:24:39Z</time>
      </trkpt>
      <trkpt lat="42.49497" lon="2.39614">
        <ele>1920</ele>
        <time>2022-07-06T17:24:50Z</time>
      </trkpt>
      <trkpt lat="42.49496" lon="2.39616">
        <ele>1920</ele>
        <time>2022-07-06T17:24:53Z</time>
      </trkpt>
      <trkpt lat="42.49504" lon="2.3962">
        <ele>1919</ele>
        <time>2022-07-06T17:25:04Z</time>
      </trkpt>
      <trkpt lat="42.49511" lon="2.39627">
        <ele>1918</ele>
        <time>2022-07-06T17:25:16Z</time>
      </trkpt>
      <trkpt lat="42.49522" lon="2.39616">
        <ele>1912</ele>
        <time>2022-07-06T17:25:34Z</time>
      </trkpt>
      <trkpt lat="42.49524" lon="2.39606">
        <ele>1910</ele>
        <time>2022-07-06T17:25:44Z</time>
      </trkpt>
      <trkpt lat="42.49532" lon="2.3959">
        <ele>1904</ele>
        <time>2022-07-06T17:26:03Z</time>
      </trkpt>
      <trkpt lat="42.49539" lon="2.39599">
        <ele>1903</ele>
        <time>2022-07-06T17:26:16Z</time>
      </trkpt>
      <trkpt lat="42.49548" lon="2.396">
        <ele>1900</ele>
        <time>2022-07-06T17:26:28Z</time>
      </trkpt>
      <trkpt lat="42.49552" lon="2.39606">
        <ele>1900</ele>
        <time>2022-07-06T17:26:36Z</time>
      </trkpt>
      <trkpt lat="42.49559" lon="2.39597">
        <ele>1896</ele>
        <time>2022-07-06T17:26:49Z</time>
      </trkpt>
      <trkpt lat="42.49563" lon="2.3958">
        <ele>1891</ele>
        <time>2022-07-06T17:27:06Z</time>
      </trkpt>
      <trkpt lat="42.49569" lon="2.3957">
        <ele>1887</ele>
        <time>2022-07-06T17:27:19Z</time>
      </trkpt>
      <trkpt lat="42.49579" lon="2.39576">
        <ele>1884</ele>
        <time>2022-07-06T17:27:34Z</time>
      </trkpt>
      <trkpt lat="42.49587" lon="2.3957">
        <ele>1881</ele>
        <time>2022-07-06T17:27:46Z</time>
      </trkpt>
      <trkpt lat="42.49594" lon="2.39558">
        <ele>1877</ele>
        <time>2022-07-06T17:28:01Z</time>
      </trkpt>
      <trkpt lat="42.49599" lon="2.39557">
        <ele>1875</ele>
        <time>2022-07-06T17:28:08Z</time>
      </trkpt>
      <trkpt lat="42.4961" lon="2.39542">
        <ele>1870</ele>
        <time>2022-07-06T17:28:28Z</time>
      </trkpt>
      <trkpt lat="42.49623" lon="2.3953">
        <ele>1866</ele>
        <time>2022-07-06T17:28:49Z</time>
      </trkpt>
      <trkpt lat="42.49654" lon="2.39511">
        <ele>1859</ele>
        <time>2022-07-06T17:29:35Z</time>
      </trkpt>
      <trkpt lat="42.49666" lon="2.39501">
        <ele>1857</ele>
        <time>2022-07-06T17:29:54Z</time>
      </trkpt>
      <trkpt lat="42.49674" lon="2.39503">
        <ele>1855</ele>
        <time>2022-07-06T17:30:04Z</time>
      </trkpt>
      <trkpt lat="42.49675" lon="2.39515">
        <ele>1855</ele>
        <time>2022-07-06T17:30:16Z</time>
      </trkpt>
      <trkpt lat="42.49684" lon="2.39516">
        <ele>1853</ele>
        <time>2022-07-06T17:30:28Z</time>
      </trkpt>
      <trkpt lat="42.49694" lon="2.39511">
        <ele>1851</ele>
        <time>2022-07-06T17:30:43Z</time>
      </trkpt>
      <trkpt lat="42.49703" lon="2.39533">
        <ele>1848</ele>
        <time>2022-07-06T17:31:07Z</time>
      </trkpt>
      <trkpt lat="42.49705" lon="2.39545">
        <ele>1847</ele>
        <time>2022-07-06T17:31:19Z</time>
      </trkpt>
      <trkpt lat="42.4971" lon="2.39539">
        <ele>1845</ele>
        <time>2022-07-06T17:31:28Z</time>
      </trkpt>
      <trkpt lat="42.49724" lon="2.39544">
        <ele>1841</ele>
        <time>2022-07-06T17:31:48Z</time>
      </trkpt>
      <trkpt lat="42.49729" lon="2.39557">
        <ele>1839</ele>
        <time>2022-07-06T17:32:02Z</time>
      </trkpt>
      <trkpt lat="42.4977" lon="2.39536">
        <ele>1828</ele>
        <time>2022-07-06T17:33:01Z</time>
      </trkpt>
      <trkpt lat="42.49787" lon="2.39519">
        <ele>1824</ele>
        <time>2022-07-06T17:33:29Z</time>
      </trkpt>
      <trkpt lat="42.49791" lon="2.39531">
        <ele>1821</ele>
        <time>2022-07-06T17:33:42Z</time>
      </trkpt>
      <trkpt lat="42.49796" lon="2.39532">
        <ele>1819</ele>
        <time>2022-07-06T17:33:48Z</time>
      </trkpt>
      <trkpt lat="42.49801" lon="2.39522">
        <ele>1819</ele>
        <time>2022-07-06T17:34:00Z</time>
      </trkpt>
      <trkpt lat="42.49815" lon="2.39515">
        <ele>1816</ele>
        <time>2022-07-06T17:34:20Z</time>
      </trkpt>
      <trkpt lat="42.4984" lon="2.39519">
        <ele>1807</ele>
        <time>2022-07-06T17:34:54Z</time>
      </trkpt>
      <trkpt lat="42.49851" lon="2.39517">
        <ele>1804</ele>
        <time>2022-07-06T17:35:09Z</time>
      </trkpt>
      <trkpt lat="42.49871" lon="2.39507">
        <ele>1800</ele>
        <time>2022-07-06T17:35:37Z</time>
      </trkpt>
      <trkpt lat="42.49882" lon="2.39506">
        <ele>1796</ele>
        <time>2022-07-06T17:35:52Z</time>
      </trkpt>
      <trkpt lat="42.49896" lon="2.39498">
        <ele>1794</ele>
        <time>2022-07-06T17:36:12Z</time>
      </trkpt>
      <trkpt lat="42.4994" lon="2.39452">
        <ele>1789</ele>
        <time>2022-07-06T17:37:26Z</time>
      </trkpt>
      <trkpt lat="42.49973" lon="2.39427">
        <ele>1783</ele>
        <time>2022-07-06T17:38:17Z</time>
      </trkpt>
      <trkpt lat="42.49994" lon="2.39418">
        <ele>1779</ele>
        <time>2022-07-06T17:38:46Z</time>
      </trkpt>
      <trkpt lat="42.50005" lon="2.39404">
        <ele>1777</ele>
        <time>2022-07-06T17:39:06Z</time>
      </trkpt>
      <trkpt lat="42.50033" lon="2.39381">
        <ele>1768</ele>
        <time>2022-07-06T17:39:50Z</time>
      </trkpt>
      <trkpt lat="42.50051" lon="2.39347">
        <ele>1765</ele>
        <time>2022-07-06T17:40:31Z</time>
      </trkpt>
      <trkpt lat="42.50065" lon="2.39327">
        <ele>1761</ele>
        <time>2022-07-06T17:40:58Z</time>
      </trkpt>
      <trkpt lat="42.50065" lon="2.3932">
        <ele>1762</ele>
        <time>2022-07-06T17:41:05Z</time>
      </trkpt>
      <trkpt lat="42.50077" lon="2.39307">
        <ele>1758</ele>
        <time>2022-07-06T17:41:26Z</time>
      </trkpt>
      <trkpt lat="42.50081" lon="2.39273">
        <ele>1761</ele>
        <time>2022-07-06T17:41:59Z</time>
      </trkpt>
      <trkpt lat="42.50087" lon="2.39271">
        <ele>1759</ele>
        <time>2022-07-06T17:42:08Z</time>
      </trkpt>
      <trkpt lat="42.50095" lon="2.39263">
        <ele>1756</ele>
        <time>2022-07-06T17:42:21Z</time>
      </trkpt>
      <trkpt lat="42.50101" lon="2.39253">
        <ele>1755</ele>
        <time>2022-07-06T17:42:34Z</time>
      </trkpt>
      <trkpt lat="42.50105" lon="2.39239">
        <ele>1755</ele>
        <time>2022-07-06T17:42:48Z</time>
      </trkpt>
      <trkpt lat="42.50127" lon="2.39218">
        <ele>1749</ele>
        <time>2022-07-06T17:43:24Z</time>
      </trkpt>
      <trkpt lat="42.50134" lon="2.39206">
        <ele>1749</ele>
        <time>2022-07-06T17:43:39Z</time>
      </trkpt>
      <trkpt lat="42.50157" lon="2.39186">
        <ele>1744</ele>
        <time>2022-07-06T17:44:16Z</time>
      </trkpt>
      <trkpt lat="42.50176" lon="2.39174">
        <ele>1740</ele>
        <time>2022-07-06T17:44:44Z</time>
      </trkpt>
      <trkpt lat="42.50198" lon="2.39176">
        <ele>1733</ele>
        <time>2022-07-06T17:45:13Z</time>
      </trkpt>
      <trkpt lat="42.50209" lon="2.39172">
        <ele>1730</ele>
        <time>2022-07-06T17:45:28Z</time>
      </trkpt>
      <trkpt lat="42.50236" lon="2.39173">
        <ele>1722</ele>
        <time>2022-07-06T17:46:04Z</time>
      </trkpt>
      <trkpt lat="42.50248" lon="2.39169">
        <ele>1720</ele>
        <time>2022-07-06T17:46:21Z</time>
      </trkpt>
      <trkpt lat="42.5029" lon="2.39163">
        <ele>1707</ele>
        <time>2022-07-06T17:47:17Z</time>
      </trkpt>
      <trkpt lat="42.50306" lon="2.39151">
        <ele>1705</ele>
        <time>2022-07-06T17:47:42Z</time>
      </trkpt>
      <trkpt lat="42.50327" lon="2.39117">
        <ele>1707</ele>
        <time>2022-07-06T17:48:25Z</time>
      </trkpt>
      <trkpt lat="42.50336" lon="2.39108">
        <ele>1706</ele>
        <time>2022-07-06T17:48:40Z</time>
      </trkpt>
      <trkpt lat="42.50342" lon="2.39112">
        <ele>1703</ele>
        <time>2022-07-06T17:48:49Z</time>
      </trkpt>
      <trkpt lat="42.50348" lon="2.39131">
        <ele>1696</ele>
        <time>2022-07-06T17:49:10Z</time>
      </trkpt>
      <trkpt lat="42.50373" lon="2.3912">
        <ele>1689</ele>
        <time>2022-07-06T17:49:45Z</time>
      </trkpt>
      <trkpt lat="42.50389" lon="2.3912">
        <ele>1683</ele>
        <time>2022-07-06T17:50:06Z</time>
      </trkpt>
      <trkpt lat="42.50387" lon="2.39117">
        <ele>1685</ele>
        <time>2022-07-06T17:50:10Z</time>
      </trkpt>
      <trkpt lat="42.5039" lon="2.39129">
        <ele>1680</ele>
        <time>2022-07-06T17:50:22Z</time>
      </trkpt>
      <trkpt lat="42.50389" lon="2.39144">
        <ele>1677</ele>
        <time>2022-07-06T17:50:37Z</time>
      </trkpt>
      <trkpt lat="42.50394" lon="2.39144">
        <ele>1675</ele>
        <time>2022-07-06T17:50:44Z</time>
      </trkpt>
      <trkpt lat="42.50401" lon="2.39134">
        <ele>1675</ele>
        <time>2022-07-06T17:50:57Z</time>
      </trkpt>
      <trkpt lat="42.50407" lon="2.3913">
        <ele>1673</ele>
        <time>2022-07-06T17:51:06Z</time>
      </trkpt>
      <trkpt lat="42.50446" lon="2.39117">
        <ele>1664</ele>
        <time>2022-07-06T17:52:00Z</time>
      </trkpt>
      <trkpt lat="42.50456" lon="2.39111">
        <ele>1663</ele>
        <time>2022-07-06T17:52:15Z</time>
      </trkpt>
      <trkpt lat="42.50485" lon="2.39104">
        <ele>1656</ele>
        <time>2022-07-06T17:52:54Z</time>
      </trkpt>
      <trkpt lat="42.50504" lon="2.39103">
        <ele>1651</ele>
        <time>2022-07-06T17:53:19Z</time>
      </trkpt>
      <trkpt lat="42.50523" lon="2.39096">
        <ele>1650</ele>
        <time>2022-07-06T17:53:46Z</time>
      </trkpt>
      <trkpt lat="42.5053" lon="2.391">
        <ele>1647</ele>
        <time>2022-07-06T17:53:56Z</time>
      </trkpt>
      <trkpt lat="42.50505" lon="2.39129">
        <ele>1642</ele>
        <time>2022-07-06T17:54:40Z</time>
      </trkpt>
      <trkpt lat="42.50499" lon="2.39142">
        <ele>1639</ele>
        <time>2022-07-06T17:54:55Z</time>
      </trkpt>
      <trkpt lat="42.50485" lon="2.39156">
        <ele>1639</ele>
        <time>2022-07-06T17:55:18Z</time>
      </trkpt>
      <trkpt lat="42.50472" lon="2.392">
        <ele>1631</ele>
        <time>2022-07-06T17:56:04Z</time>
      </trkpt>
      <trkpt lat="42.50475" lon="2.39206">
        <ele>1628</ele>
        <time>2022-07-06T17:56:12Z</time>
      </trkpt>
      <trkpt lat="42.50482" lon="2.39207">
        <ele>1625</ele>
        <time>2022-07-06T17:56:21Z</time>
      </trkpt>
      <trkpt lat="42.50484" lon="2.39215">
        <ele>1622</ele>
        <time>2022-07-06T17:56:29Z</time>
      </trkpt>
      <trkpt lat="42.5049" lon="2.39222">
        <ele>1618</ele>
        <time>2022-07-06T17:56:40Z</time>
      </trkpt>
      <trkpt lat="42.505" lon="2.39221">
        <ele>1614</ele>
        <time>2022-07-06T17:56:53Z</time>
      </trkpt>
      <trkpt lat="42.50501" lon="2.39233">
        <ele>1611</ele>
        <time>2022-07-06T17:57:05Z</time>
      </trkpt>
      <trkpt lat="42.50506" lon="2.39241">
        <ele>1608</ele>
        <time>2022-07-06T17:57:15Z</time>
      </trkpt>
      <trkpt lat="42.50513" lon="2.39246">
        <ele>1607</ele>
        <time>2022-07-06T17:57:26Z</time>
      </trkpt>
      <trkpt lat="42.50512" lon="2.39267">
        <ele>1601</ele>
        <time>2022-07-06T17:57:47Z</time>
      </trkpt>
      <trkpt lat="42.50508" lon="2.39266">
        <ele>1601</ele>
        <time>2022-07-06T17:57:52Z</time>
      </trkpt>
      <trkpt lat="42.50505" lon="2.39261">
        <ele>1603</ele>
        <time>2022-07-06T17:57:58Z</time>
      </trkpt>
      <trkpt lat="42.50513" lon="2.39258">
        <ele>1603</ele>
        <time>2022-07-06T17:58:10Z</time>
      </trkpt>
      <trkpt lat="42.50504" lon="2.3926">
        <ele>1603</ele>
        <time>2022-07-06T17:58:22Z</time>
      </trkpt>
      <trkpt lat="42.50513" lon="2.39259">
        <ele>1603</ele>
        <time>2022-07-06T17:58:34Z</time>
      </trkpt>
      <trkpt lat="42.50521" lon="2.39272">
        <ele>1599</ele>
        <time>2022-07-06T17:58:50Z</time>
      </trkpt>
      <trkpt lat="42.50553" lon="2.39292">
        <ele>1590</ele>
        <time>2022-07-06T17:59:37Z</time>
      </trkpt>
      <trkpt lat="42.50573" lon="2.39312">
        <ele>1581</ele>
        <time>2022-07-06T18:00:11Z</time>
      </trkpt>
      <trkpt lat="42.50593" lon="2.39342">
        <ele>1568</ele>
        <time>2022-07-06T18:00:50Z</time>
      </trkpt>
      <trkpt lat="42.50614" lon="2.39365">
        <ele>1559</ele>
        <time>2022-07-06T18:01:26Z</time>
      </trkpt>
      <trkpt lat="42.50652" lon="2.39383">
        <ele>1551</ele>
        <time>2022-07-06T18:02:20Z</time>
      </trkpt>
      <trkpt lat="42.50686" lon="2.39415">
        <ele>1536</ele>
        <time>2022-07-06T18:03:15Z</time>
      </trkpt>
      <trkpt lat="42.50772" lon="2.3947">
        <ele>1510</ele>
        <time>2022-07-06T18:05:22Z</time>
      </trkpt>
      <trkpt lat="42.50795" lon="2.3948">
        <ele>1503</ele>
        <time>2022-07-06T18:05:54Z</time>
      </trkpt>
      <trkpt lat="42.5081" lon="2.39482">
        <ele>1501</ele>
        <time>2022-07-06T18:06:15Z</time>
      </trkpt>
      <trkpt lat="42.5082" lon="2.3948">
        <ele>1500</ele>
        <time>2022-07-06T18:06:28Z</time>
      </trkpt>
      <trkpt lat="42.50819" lon="2.39484">
        <ele>1499</ele>
        <time>2022-07-06T18:06:32Z</time>
      </trkpt>
      <trkpt lat="42.50826" lon="2.39491">
        <ele>1496</ele>
        <time>2022-07-06T18:06:44Z</time>
      </trkpt>
      <trkpt lat="42.50836" lon="2.39487">
        <ele>1495</ele>
        <time>2022-07-06T18:06:58Z</time>
      </trkpt>
      <trkpt lat="42.50846" lon="2.39479">
        <ele>1493</ele>
        <time>2022-07-06T18:07:13Z</time>
      </trkpt>
      <trkpt lat="42.50882" lon="2.39437">
        <ele>1489</ele>
        <time>2022-07-06T18:08:17Z</time>
      </trkpt>
      <trkpt lat="42.50887" lon="2.39425">
        <ele>1490</ele>
        <time>2022-07-06T18:08:30Z</time>
      </trkpt>
      <trkpt lat="42.50896" lon="2.39416">
        <ele>1488</ele>
        <time>2022-07-06T18:08:45Z</time>
      </trkpt>
      <trkpt lat="42.50905" lon="2.39414">
        <ele>1484</ele>
        <time>2022-07-06T18:08:57Z</time>
      </trkpt>
      <trkpt lat="42.50906" lon="2.39419">
        <ele>1482</ele>
        <time>2022-07-06T18:09:02Z</time>
      </trkpt>
      <trkpt lat="42.50902" lon="2.3942">
        <ele>1484</ele>
        <time>2022-07-06T18:09:08Z</time>
      </trkpt>
      <trkpt lat="42.50908" lon="2.3942">
        <ele>1481</ele>
        <time>2022-07-06T18:09:16Z</time>
      </trkpt>
      <trkpt lat="42.50903" lon="2.39427">
        <ele>1482</ele>
        <time>2022-07-06T18:09:25Z</time>
      </trkpt>
      <trkpt lat="42.50904" lon="2.3942">
        <ele>1483</ele>
        <time>2022-07-06T18:09:32Z</time>
      </trkpt>
      <trkpt lat="42.50911" lon="2.39419">
        <ele>1480</ele>
        <time>2022-07-06T18:09:42Z</time>
      </trkpt>
      <trkpt lat="42.50907" lon="2.39425">
        <ele>1480</ele>
        <time>2022-07-06T18:09:50Z</time>
      </trkpt>
      <trkpt lat="42.50917" lon="2.39406">
        <ele>1479</ele>
        <time>2022-07-06T18:10:13Z</time>
      </trkpt>
      <trkpt lat="42.50961" lon="2.3938">
        <ele>1463</ele>
        <time>2022-07-06T18:11:17Z</time>
      </trkpt>
      <trkpt lat="42.50982" lon="2.39379">
        <ele>1455</ele>
        <time>2022-07-06T18:11:45Z</time>
      </trkpt>
      <trkpt lat="42.50982" lon="2.39391">
        <ele>1455</ele>
        <time>2022-07-06T18:11:57Z</time>
      </trkpt>
      <trkpt lat="42.50997" lon="2.39368">
        <ele>1448</ele>
        <time>2022-07-06T18:12:27Z</time>
      </trkpt>
      <trkpt lat="42.51013" lon="2.39369">
        <ele>1444</ele>
        <time>2022-07-06T18:12:48Z</time>
      </trkpt>
      <trkpt lat="42.51047" lon="2.39355">
        <ele>1437</ele>
        <time>2022-07-06T18:13:36Z</time>
      </trkpt>
      <trkpt lat="42.51066" lon="2.39354">
        <ele>1434</ele>
        <time>2022-07-06T18:14:01Z</time>
      </trkpt>
      <trkpt lat="42.51071" lon="2.39345">
        <ele>1433</ele>
        <time>2022-07-06T18:14:12Z</time>
      </trkpt>
      <trkpt lat="42.51085" lon="2.39348">
        <ele>1431</ele>
        <time>2022-07-06T18:14:31Z</time>
      </trkpt>
      <trkpt lat="42.51107" lon="2.3934">
        <ele>1426</ele>
        <time>2022-07-06T18:15:01Z</time>
      </trkpt>
      <trkpt lat="42.51104" lon="2.39336">
        <ele>1427</ele>
        <time>2022-07-06T18:15:07Z</time>
      </trkpt>
      <trkpt lat="42.51093" lon="2.3933">
        <ele>1429</ele>
        <time>2022-07-06T18:15:23Z</time>
      </trkpt>
      <trkpt lat="42.5111" lon="2.39322">
        <ele>1422</ele>
        <time>2022-07-06T18:15:47Z</time>
      </trkpt>
      <trkpt lat="42.5112" lon="2.3932">
        <ele>1420</ele>
        <time>2022-07-06T18:16:00Z</time>
      </trkpt>
      <trkpt lat="42.51142" lon="2.39322">
        <ele>1416</ele>
        <time>2022-07-06T18:16:30Z</time>
      </trkpt>
      <trkpt lat="42.5115" lon="2.39319">
        <ele>1413</ele>
        <time>2022-07-06T18:16:41Z</time>
      </trkpt>
      <trkpt lat="42.5115" lon="2.39303">
        <ele>1409</ele>
        <time>2022-07-06T18:16:57Z</time>
      </trkpt>
      <trkpt lat="42.51139" lon="2.39292">
        <ele>1407</ele>
        <time>2022-07-06T18:17:15Z</time>
      </trkpt>
      <trkpt lat="42.51119" lon="2.39278">
        <ele>1406</ele>
        <time>2022-07-06T18:17:45Z</time>
      </trkpt>
      <trkpt lat="42.51118" lon="2.39273">
        <ele>1404</ele>
        <time>2022-07-06T18:17:50Z</time>
      </trkpt>
      <trkpt lat="42.51127" lon="2.39274">
        <ele>1403</ele>
        <time>2022-07-06T18:18:02Z</time>
      </trkpt>
      <trkpt lat="42.51132" lon="2.39269">
        <ele>1401</ele>
        <time>2022-07-06T18:18:10Z</time>
      </trkpt>
      <trkpt lat="42.51133" lon="2.39264">
        <ele>1399</ele>
        <time>2022-07-06T18:18:15Z</time>
      </trkpt>
      <trkpt lat="42.51139" lon="2.39259">
        <ele>1397</ele>
        <time>2022-07-06T18:18:25Z</time>
      </trkpt>
      <trkpt lat="42.51147" lon="2.39254">
        <ele>1394</ele>
        <time>2022-07-06T18:18:36Z</time>
      </trkpt>
      <trkpt lat="42.51151" lon="2.39256">
        <ele>1394</ele>
        <time>2022-07-06T18:18:42Z</time>
      </trkpt>
      <trkpt lat="42.51147" lon="2.39243">
        <ele>1390</ele>
        <time>2022-07-06T18:18:56Z</time>
      </trkpt>
      <trkpt lat="42.51151" lon="2.39238">
        <ele>1387</ele>
        <time>2022-07-06T18:19:03Z</time>
      </trkpt>
      <trkpt lat="42.51112" lon="2.39211">
        <ele>1378</ele>
        <time>2022-07-06T18:20:02Z</time>
      </trkpt>
      <trkpt lat="42.51104" lon="2.39202">
        <ele>1375</ele>
        <time>2022-07-06T18:20:16Z</time>
      </trkpt>
      <trkpt lat="42.51088" lon="2.39198">
        <ele>1375</ele>
        <time>2022-07-06T18:20:37Z</time>
      </trkpt>
      <trkpt lat="42.5108" lon="2.3919">
        <ele>1373</ele>
        <time>2022-07-06T18:20:51Z</time>
      </trkpt>
      <trkpt lat="42.51072" lon="2.39186">
        <ele>1374</ele>
        <time>2022-07-06T18:21:02Z</time>
      </trkpt>
      <trkpt lat="42.5108" lon="2.39187">
        <ele>1372</ele>
        <time>2022-07-06T18:21:13Z</time>
      </trkpt>
      <trkpt lat="42.51075" lon="2.39179">
        <ele>1370</ele>
        <time>2022-07-06T18:21:23Z</time>
      </trkpt>
      <trkpt lat="42.5108" lon="2.39174">
        <ele>1366</ele>
        <time>2022-07-06T18:21:31Z</time>
      </trkpt>
      <trkpt lat="42.51091" lon="2.39176">
        <ele>1364</ele>
        <time>2022-07-06T18:21:46Z</time>
      </trkpt>
      <trkpt lat="42.51094" lon="2.3917">
        <ele>1361</ele>
        <time>2022-07-06T18:21:53Z</time>
      </trkpt>
      <trkpt lat="42.51072" lon="2.39146">
        <ele>1362</ele>
        <time>2022-07-06T18:22:31Z</time>
      </trkpt>
      <trkpt lat="42.51077" lon="2.39147">
        <ele>1360</ele>
        <time>2022-07-06T18:22:38Z</time>
      </trkpt>
      <trkpt lat="42.5108" lon="2.39139">
        <ele>1357</ele>
        <time>2022-07-06T18:22:46Z</time>
      </trkpt>
      <trkpt lat="42.51084" lon="2.39136">
        <ele>1354</ele>
        <time>2022-07-06T18:22:53Z</time>
      </trkpt>
      <trkpt lat="42.51092" lon="2.39139">
        <ele>1353</ele>
        <time>2022-07-06T18:23:04Z</time>
      </trkpt>
      <trkpt lat="42.51121" lon="2.39138">
        <ele>1346</ele>
        <time>2022-07-06T18:23:42Z</time>
      </trkpt>
      <trkpt lat="42.51119" lon="2.39139">
        <ele>1347</ele>
        <time>2022-07-06T18:23:45Z</time>
      </trkpt>
      <trkpt lat="42.51121" lon="2.39135">
        <ele>1345</ele>
        <time>2022-07-06T18:23:50Z</time>
      </trkpt>
      <trkpt lat="42.51141" lon="2.39124">
        <ele>1336</ele>
        <time>2022-07-06T18:24:19Z</time>
      </trkpt>
      <trkpt lat="42.51159" lon="2.39121">
        <ele>1329</ele>
        <time>2022-07-06T18:24:43Z</time>
      </trkpt>
      <trkpt lat="42.51173" lon="2.3911">
        <ele>1322</ele>
        <time>2022-07-06T18:25:05Z</time>
      </trkpt>
      <trkpt lat="42.51151" lon="2.39101">
        <ele>1323</ele>
        <time>2022-07-06T18:25:35Z</time>
      </trkpt>
      <trkpt lat="42.51144" lon="2.39102">
        <ele>1326</ele>
        <time>2022-07-06T18:25:45Z</time>
      </trkpt>
      <trkpt lat="42.51144" lon="2.39097">
        <ele>1324</ele>
        <time>2022-07-06T18:25:50Z</time>
      </trkpt>
      <trkpt lat="42.51142" lon="2.39098">
        <ele>1325</ele>
        <time>2022-07-06T18:25:52Z</time>
      </trkpt>
      <trkpt lat="42.51146" lon="2.39093">
        <ele>1322</ele>
        <time>2022-07-06T18:26:00Z</time>
      </trkpt>
      <trkpt lat="42.51145" lon="2.39084">
        <ele>1319</ele>
        <time>2022-07-06T18:26:09Z</time>
      </trkpt>
      <trkpt lat="42.51152" lon="2.39077">
        <ele>1315</ele>
        <time>2022-07-06T18:26:20Z</time>
      </trkpt>
      <trkpt lat="42.51158" lon="2.39057">
        <ele>1311</ele>
        <time>2022-07-06T18:26:41Z</time>
      </trkpt>
      <trkpt lat="42.51161" lon="2.38991">
        <ele>1307</ele>
        <time>2022-07-06T18:27:46Z</time>
      </trkpt>
      <trkpt lat="42.51174" lon="2.38982">
        <ele>1302</ele>
        <time>2022-07-06T18:28:06Z</time>
      </trkpt>
      <trkpt lat="42.51182" lon="2.38968">
        <ele>1300</ele>
        <time>2022-07-06T18:28:23Z</time>
      </trkpt>
      <trkpt lat="42.51213" lon="2.38933">
        <ele>1289</ele>
        <time>2022-07-06T18:29:17Z</time>
      </trkpt>
      <trkpt lat="42.51221" lon="2.38919">
        <ele>1286</ele>
        <time>2022-07-06T18:29:35Z</time>
      </trkpt>
      <trkpt lat="42.5124" lon="2.38902">
        <ele>1277</ele>
        <time>2022-07-06T18:30:05Z</time>
      </trkpt>
      <trkpt lat="42.51273" lon="2.38851">
        <ele>1267</ele>
        <time>2022-07-06T18:31:12Z</time>
      </trkpt>
      <trkpt lat="42.51277" lon="2.38838">
        <ele>1267</ele>
        <time>2022-07-06T18:31:26Z</time>
      </trkpt>
      <trkpt lat="42.51286" lon="2.38822">
        <ele>1267</ele>
        <time>2022-07-06T18:31:45Z</time>
      </trkpt>
      <trkpt lat="42.51311" lon="2.38812">
        <ele>1257</ele>
        <time>2022-07-06T18:32:20Z</time>
      </trkpt>
      <trkpt lat="42.51343" lon="2.38776">
        <ele>1252</ele>
        <time>2022-07-06T18:33:16Z</time>
      </trkpt>
      <trkpt lat="42.51363" lon="2.38758">
        <ele>1248</ele>
        <time>2022-07-06T18:33:48Z</time>
      </trkpt>
      <trkpt lat="42.51373" lon="2.38738">
        <ele>1250</ele>
        <time>2022-07-06T18:34:11Z</time>
      </trkpt>
      <trkpt lat="42.51403" lon="2.3872">
        <ele>1242</ele>
        <time>2022-07-06T18:34:55Z</time>
      </trkpt>
      <trkpt lat="42.51431" lon="2.38697">
        <ele>1238</ele>
        <time>2022-07-06T18:35:39Z</time>
      </trkpt>
      <trkpt lat="42.51445" lon="2.38694">
        <ele>1234</ele>
        <time>2022-07-06T18:35:58Z</time>
      </trkpt>
      <trkpt lat="42.51483" lon="2.38679">
        <ele>1224</ele>
        <time>2022-07-06T18:36:51Z</time>
      </trkpt>
      <trkpt lat="42.51491" lon="2.38678">
        <ele>1221</ele>
        <time>2022-07-06T18:37:01Z</time>
      </trkpt>
      <trkpt lat="42.51509" lon="2.38681">
        <ele>1214</ele>
        <time>2022-07-06T18:37:26Z</time>
      </trkpt>
      <trkpt lat="42.51523" lon="2.38688">
        <ele>1207</ele>
        <time>2022-07-06T18:37:45Z</time>
      </trkpt>
      <trkpt lat="42.51529" lon="2.38684">
        <ele>1206</ele>
        <time>2022-07-06T18:37:54Z</time>
      </trkpt>
      <trkpt lat="42.51521" lon="2.38692">
        <ele>1207</ele>
        <time>2022-07-06T18:38:08Z</time>
      </trkpt>
      <trkpt lat="42.51524" lon="2.38712">
        <ele>1201</ele>
        <time>2022-07-06T18:38:28Z</time>
      </trkpt>
      <trkpt lat="42.51523" lon="2.38707">
        <ele>1203</ele>
        <time>2022-07-06T18:38:33Z</time>
      </trkpt>
      <trkpt lat="42.51527" lon="2.38688">
        <ele>1206</ele>
        <time>2022-07-06T18:38:52Z</time>
      </trkpt>
      <trkpt lat="42.5154" lon="2.38672">
        <ele>1206</ele>
        <time>2022-07-06T18:39:16Z</time>
      </trkpt>
      <trkpt lat="42.51539" lon="2.38659">
        <ele>1207</ele>
        <time>2022-07-06T18:39:29Z</time>
      </trkpt>
      <trkpt lat="42.51516" lon="2.3862">
        <ele>1212</ele>
        <time>2022-07-06T18:40:18Z</time>
      </trkpt>
      <trkpt lat="42.51505" lon="2.38579">
        <ele>1213</ele>
        <time>2022-07-06T18:41:01Z</time>
      </trkpt>
      <trkpt lat="42.51502" lon="2.38541">
        <ele>1205</ele>
        <time>2022-07-06T18:41:38Z</time>
      </trkpt>
      <trkpt lat="42.51492" lon="2.38508">
        <ele>1202</ele>
        <time>2022-07-06T18:42:13Z</time>
      </trkpt>
      <trkpt lat="42.51483" lon="2.38466">
        <ele>1195</ele>
        <time>2022-07-06T18:42:56Z</time>
      </trkpt>
      <trkpt lat="42.51468" lon="2.38424">
        <ele>1190</ele>
        <time>2022-07-06T18:43:42Z</time>
      </trkpt>
      <trkpt lat="42.51454" lon="2.38393">
        <ele>1190</ele>
        <time>2022-07-06T18:44:18Z</time>
      </trkpt>
      <trkpt lat="42.5145" lon="2.38374">
        <ele>1188</ele>
        <time>2022-07-06T18:44:37Z</time>
      </trkpt>
      <trkpt lat="42.51451" lon="2.38334">
        <ele>1179</ele>
        <time>2022-07-06T18:45:17Z</time>
      </trkpt>
      <trkpt lat="42.51457" lon="2.38289">
        <ele>1170</ele>
        <time>2022-07-06T18:46:02Z</time>
      </trkpt>
      <trkpt lat="42.51459" lon="2.38249">
        <ele>1164</ele>
        <time>2022-07-06T18:46:41Z</time>
      </trkpt>
      <trkpt lat="42.51468" lon="2.38186">
        <ele>1148</ele>
        <time>2022-07-06T18:47:44Z</time>
      </trkpt>
      <trkpt lat="42.51469" lon="2.38163">
        <ele>1144</ele>
        <time>2022-07-06T18:48:07Z</time>
      </trkpt>
      <trkpt lat="42.51467" lon="2.3816">
        <ele>1144</ele>
        <time>2022-07-06T18:48:11Z</time>
      </trkpt>
      <trkpt lat="42.5147" lon="2.38156">
        <ele>1142</ele>
        <time>2022-07-06T18:48:17Z</time>
      </trkpt>
      <trkpt lat="42.51466" lon="2.38158">
        <ele>1144</ele>
        <time>2022-07-06T18:48:22Z</time>
      </trkpt>
      <trkpt lat="42.51472" lon="2.38155">
        <ele>1141</ele>
        <time>2022-07-06T18:48:31Z</time>
      </trkpt>
      <trkpt lat="42.51469" lon="2.38155">
        <ele>1142</ele>
        <time>2022-07-06T18:48:35Z</time>
      </trkpt>
      <trkpt lat="42.51466" lon="2.3815">
        <ele>1142</ele>
        <time>2022-07-06T18:48:41Z</time>
      </trkpt>
      <trkpt lat="42.51465" lon="2.38136">
        <ele>1140</ele>
        <time>2022-07-06T18:48:55Z</time>
      </trkpt>
      <trkpt lat="42.51468" lon="2.38126">
        <ele>1136</ele>
        <time>2022-07-06T18:49:06Z</time>
      </trkpt>
      <trkpt lat="42.51484" lon="2.3811">
        <ele>1129</ele>
        <time>2022-07-06T18:49:32Z</time>
      </trkpt>
      <trkpt lat="42.51483" lon="2.38102">
        <ele>1128</ele>
        <time>2022-07-06T18:49:40Z</time>
      </trkpt>
      <trkpt lat="42.51441" lon="2.38104">
        <ele>1139</ele>
        <time>2022-07-06T18:50:36Z</time>
      </trkpt>
    </trkseg>
  </trk>
</gpx>